<?xml version="1.0" encoding="UTF-8" standalone="no" ?>
<gpx xmlns="http://www.topografix.com/GPX/1/1" xmlns:xsi="http://www.w3.org/2001/XMLSchema-instance" xsi:schemaLocation="http://www.topografix.com/GPX/1/1 http://www.topografix.com/GPX/1/1/gpx.xsd" version="1.1" creator="VisuGPX - https://www.visugpx.com">
  <metadata>
    <name>CURRENT TRACK- 27 AOU LAVANDOU</name>
    <desc><![CDATA[Camping de la Plage Le Lavandou HW AW]]></desc>
  </metadata>
  <trk>
    <name><![CDATA[CURRENT TRACK- 27 AOU LAVANDOU]]></name>
    <trkseg>
      <trkpt lat="43.28175" lon="6.58726">
        <ele>2.44125</ele>
        <time>2019-08-27T14:34:55Z</time>
      </trkpt>
      <trkpt lat="43.28175" lon="6.58726">
        <ele>2.4375</ele>
        <time>2019-08-27T14:35:16Z</time>
      </trkpt>
      <trkpt lat="43.28177" lon="6.58728">
        <ele>2.5025</ele>
        <time>2019-08-28T14:06:49Z</time>
      </trkpt>
      <trkpt lat="43.28174" lon="6.58726">
        <ele>2.3725</ele>
        <time>2019-08-28T14:10:15Z</time>
      </trkpt>
      <trkpt lat="43.28177" lon="6.58725">
        <ele>2.53</ele>
        <time>2019-08-30T06:38:49Z</time>
      </trkpt>
      <trkpt lat="43.28181" lon="6.58678">
        <ele>3.4275</ele>
        <time>2019-08-30T06:58:37Z</time>
      </trkpt>
      <trkpt lat="43.28195" lon="6.58617">
        <ele>5.371188</ele>
        <time>2019-08-30T06:58:52Z</time>
      </trkpt>
      <trkpt lat="43.28195" lon="6.5856">
        <ele>5.4575</ele>
        <time>2019-08-30T06:59:09Z</time>
      </trkpt>
      <trkpt lat="43.28178" lon="6.58495">
        <ele>5.8775</ele>
        <time>2019-08-30T06:59:20Z</time>
      </trkpt>
      <trkpt lat="43.28162" lon="6.58422">
        <ele>5.5975</ele>
        <time>2019-08-30T06:59:33Z</time>
      </trkpt>
      <trkpt lat="43.28142" lon="6.58358">
        <ele>5.148375</ele>
        <time>2019-08-30T06:59:43Z</time>
      </trkpt>
      <trkpt lat="43.28123" lon="6.58287">
        <ele>5.6325</ele>
        <time>2019-08-30T06:59:55Z</time>
      </trkpt>
      <trkpt lat="43.28107" lon="6.58222">
        <ele>5.2175</ele>
        <time>2019-08-30T07:00:08Z</time>
      </trkpt>
      <trkpt lat="43.28091" lon="6.58158">
        <ele>5.187819</ele>
        <time>2019-08-30T07:00:21Z</time>
      </trkpt>
      <trkpt lat="43.28072" lon="6.58088">
        <ele>5.553894</ele>
        <time>2019-08-30T07:00:33Z</time>
      </trkpt>
      <trkpt lat="43.28054" lon="6.58019">
        <ele>6.445</ele>
        <time>2019-08-30T07:00:43Z</time>
      </trkpt>
      <trkpt lat="43.28028" lon="6.57962">
        <ele>7</ele>
        <time>2019-08-30T07:00:52Z</time>
      </trkpt>
      <trkpt lat="43.28004" lon="6.57904">
        <ele>7.5301</ele>
        <time>2019-08-30T07:01:02Z</time>
      </trkpt>
      <trkpt lat="43.27976" lon="6.57855">
        <ele>8.000813</ele>
        <time>2019-08-30T07:01:15Z</time>
      </trkpt>
      <trkpt lat="43.27949" lon="6.578">
        <ele>8.581344</ele>
        <time>2019-08-30T07:01:28Z</time>
      </trkpt>
      <trkpt lat="43.27922" lon="6.57736">
        <ele>9</ele>
        <time>2019-08-30T07:01:39Z</time>
      </trkpt>
      <trkpt lat="43.27895" lon="6.57678">
        <ele>8.21</ele>
        <time>2019-08-30T07:01:48Z</time>
      </trkpt>
      <trkpt lat="43.27855" lon="6.57635">
        <ele>8</ele>
        <time>2019-08-30T07:01:58Z</time>
      </trkpt>
      <trkpt lat="43.27815" lon="6.57603">
        <ele>7.244906</ele>
        <time>2019-08-30T07:02:06Z</time>
      </trkpt>
      <trkpt lat="43.27769" lon="6.57585">
        <ele>6.874225</ele>
        <time>2019-08-30T07:02:15Z</time>
      </trkpt>
      <trkpt lat="43.27722" lon="6.57567">
        <ele>6.61625</ele>
        <time>2019-08-30T07:02:24Z</time>
      </trkpt>
      <trkpt lat="43.27674" lon="6.57549">
        <ele>6.3663</ele>
        <time>2019-08-30T07:02:33Z</time>
      </trkpt>
      <trkpt lat="43.27627" lon="6.5753">
        <ele>5.9475</ele>
        <time>2019-08-30T07:02:44Z</time>
      </trkpt>
      <trkpt lat="43.27581" lon="6.57518">
        <ele>4.98625</ele>
        <time>2019-08-30T07:02:54Z</time>
      </trkpt>
      <trkpt lat="43.27535" lon="6.57497">
        <ele>4.603075</ele>
        <time>2019-08-30T07:03:04Z</time>
      </trkpt>
      <trkpt lat="43.27486" lon="6.57484">
        <ele>3.865422</ele>
        <time>2019-08-30T07:03:13Z</time>
      </trkpt>
      <trkpt lat="43.27441" lon="6.57482">
        <ele>3.330863</ele>
        <time>2019-08-30T07:03:25Z</time>
      </trkpt>
      <trkpt lat="43.27402" lon="6.57466">
        <ele>3</ele>
        <time>2019-08-30T07:03:41Z</time>
      </trkpt>
      <trkpt lat="43.27354" lon="6.57442">
        <ele>3.201925</ele>
        <time>2019-08-30T07:03:51Z</time>
      </trkpt>
      <trkpt lat="43.27309" lon="6.57424">
        <ele>4</ele>
        <time>2019-08-30T07:04:01Z</time>
      </trkpt>
      <trkpt lat="43.27267" lon="6.57401">
        <ele>4</ele>
        <time>2019-08-30T07:04:11Z</time>
      </trkpt>
      <trkpt lat="43.27222" lon="6.57381">
        <ele>4</ele>
        <time>2019-08-30T07:04:21Z</time>
      </trkpt>
      <trkpt lat="43.27174" lon="6.57364">
        <ele>4</ele>
        <time>2019-08-30T07:04:31Z</time>
      </trkpt>
      <trkpt lat="43.27127" lon="6.57346">
        <ele>4</ele>
        <time>2019-08-30T07:04:41Z</time>
      </trkpt>
      <trkpt lat="43.27079" lon="6.5733">
        <ele>4</ele>
        <time>2019-08-30T07:04:51Z</time>
      </trkpt>
      <trkpt lat="43.27031" lon="6.57329">
        <ele>4</ele>
        <time>2019-08-30T07:05:01Z</time>
      </trkpt>
      <trkpt lat="43.26986" lon="6.57341">
        <ele>4</ele>
        <time>2019-08-30T07:05:12Z</time>
      </trkpt>
      <trkpt lat="43.26938" lon="6.5736">
        <ele>4</ele>
        <time>2019-08-30T07:05:22Z</time>
      </trkpt>
      <trkpt lat="43.26887" lon="6.57379">
        <ele>4</ele>
        <time>2019-08-30T07:05:32Z</time>
      </trkpt>
      <trkpt lat="43.26841" lon="6.57407">
        <ele>4</ele>
        <time>2019-08-30T07:05:44Z</time>
      </trkpt>
      <trkpt lat="43.26794" lon="6.57418">
        <ele>4</ele>
        <time>2019-08-30T07:05:56Z</time>
      </trkpt>
      <trkpt lat="43.26747" lon="6.57439">
        <ele>4</ele>
        <time>2019-08-30T07:06:07Z</time>
      </trkpt>
      <trkpt lat="43.26703" lon="6.57456">
        <ele>4.6775</ele>
        <time>2019-08-30T07:06:17Z</time>
      </trkpt>
      <trkpt lat="43.2666" lon="6.57482">
        <ele>5</ele>
        <time>2019-08-30T07:06:27Z</time>
      </trkpt>
      <trkpt lat="43.26625" lon="6.5753">
        <ele>5</ele>
        <time>2019-08-30T07:06:39Z</time>
      </trkpt>
      <trkpt lat="43.26591" lon="6.57577">
        <ele>5.0525</ele>
        <time>2019-08-30T07:06:48Z</time>
      </trkpt>
      <trkpt lat="43.26557" lon="6.57621">
        <ele>5.765</ele>
        <time>2019-08-30T07:06:57Z</time>
      </trkpt>
      <trkpt lat="43.26532" lon="6.57676">
        <ele>6</ele>
        <time>2019-08-30T07:07:09Z</time>
      </trkpt>
      <trkpt lat="43.265" lon="6.57719">
        <ele>6</ele>
        <time>2019-08-30T07:07:22Z</time>
      </trkpt>
      <trkpt lat="43.26499" lon="6.5778">
        <ele>6</ele>
        <time>2019-08-30T07:07:34Z</time>
      </trkpt>
      <trkpt lat="43.26489" lon="6.57843">
        <ele>6</ele>
        <time>2019-08-30T07:07:45Z</time>
      </trkpt>
      <trkpt lat="43.26477" lon="6.57912">
        <ele>5.495925</ele>
        <time>2019-08-30T07:07:57Z</time>
      </trkpt>
      <trkpt lat="43.26463" lon="6.5798">
        <ele>5.093187</ele>
        <time>2019-08-30T07:08:08Z</time>
      </trkpt>
      <trkpt lat="43.26455" lon="6.58043">
        <ele>5</ele>
        <time>2019-08-30T07:08:19Z</time>
      </trkpt>
      <trkpt lat="43.26434" lon="6.58095">
        <ele>5</ele>
        <time>2019-08-30T07:08:31Z</time>
      </trkpt>
      <trkpt lat="43.26385" lon="6.58077">
        <ele>5.094119</ele>
        <time>2019-08-30T07:08:43Z</time>
      </trkpt>
      <trkpt lat="43.2634" lon="6.58063">
        <ele>5.6775</ele>
        <time>2019-08-30T07:08:55Z</time>
      </trkpt>
      <trkpt lat="43.26328" lon="6.58122">
        <ele>5</ele>
        <time>2019-08-30T07:09:10Z</time>
      </trkpt>
      <trkpt lat="43.26314" lon="6.58189">
        <ele>5</ele>
        <time>2019-08-30T07:09:24Z</time>
      </trkpt>
      <trkpt lat="43.2629" lon="6.58246">
        <ele>4.70075</ele>
        <time>2019-08-30T07:09:56Z</time>
      </trkpt>
      <trkpt lat="43.26283" lon="6.58308">
        <ele>4.16185</ele>
        <time>2019-08-30T07:10:07Z</time>
      </trkpt>
      <trkpt lat="43.26267" lon="6.58367">
        <ele>4</ele>
        <time>2019-08-30T07:10:18Z</time>
      </trkpt>
      <trkpt lat="43.26229" lon="6.58374">
        <ele>4.3925</ele>
        <time>2019-08-30T07:10:30Z</time>
      </trkpt>
      <trkpt lat="43.26187" lon="6.58351">
        <ele>5</ele>
        <time>2019-08-30T07:10:41Z</time>
      </trkpt>
      <trkpt lat="43.26143" lon="6.58329">
        <ele>5</ele>
        <time>2019-08-30T07:10:50Z</time>
      </trkpt>
      <trkpt lat="43.26099" lon="6.58307">
        <ele>5</ele>
        <time>2019-08-30T07:10:59Z</time>
      </trkpt>
      <trkpt lat="43.26057" lon="6.58286">
        <ele>5</ele>
        <time>2019-08-30T07:11:08Z</time>
      </trkpt>
      <trkpt lat="43.26013" lon="6.58263">
        <ele>5</ele>
        <time>2019-08-30T07:11:17Z</time>
      </trkpt>
      <trkpt lat="43.25978" lon="6.58226">
        <ele>5.066937</ele>
        <time>2019-08-30T07:11:26Z</time>
      </trkpt>
      <trkpt lat="43.25945" lon="6.5818">
        <ele>5.918637</ele>
        <time>2019-08-30T07:11:35Z</time>
      </trkpt>
      <trkpt lat="43.25903" lon="6.58157">
        <ele>6</ele>
        <time>2019-08-30T07:11:44Z</time>
      </trkpt>
      <trkpt lat="43.25866" lon="6.58177">
        <ele>6</ele>
        <time>2019-08-30T07:11:55Z</time>
      </trkpt>
      <trkpt lat="43.25835" lon="6.58208">
        <ele>5.71</ele>
        <time>2019-08-30T07:12:06Z</time>
      </trkpt>
      <trkpt lat="43.25792" lon="6.5818">
        <ele>6</ele>
        <time>2019-08-30T07:12:16Z</time>
      </trkpt>
      <trkpt lat="43.2575" lon="6.5817">
        <ele>6</ele>
        <time>2019-08-30T07:12:27Z</time>
      </trkpt>
      <trkpt lat="43.25709" lon="6.58207">
        <ele>5.585</ele>
        <time>2019-08-30T07:12:39Z</time>
      </trkpt>
      <trkpt lat="43.25667" lon="6.58244">
        <ele>5.006919</ele>
        <time>2019-08-30T07:12:49Z</time>
      </trkpt>
      <trkpt lat="43.25628" lon="6.58276">
        <ele>5.3042</ele>
        <time>2019-08-30T07:12:58Z</time>
      </trkpt>
      <trkpt lat="43.25588" lon="6.58306">
        <ele>5.747081</ele>
        <time>2019-08-30T07:13:08Z</time>
      </trkpt>
      <trkpt lat="43.25552" lon="6.58348">
        <ele>6</ele>
        <time>2019-08-30T07:13:18Z</time>
      </trkpt>
      <trkpt lat="43.25522" lon="6.58395">
        <ele>6.060031</ele>
        <time>2019-08-30T07:13:27Z</time>
      </trkpt>
      <trkpt lat="43.25493" lon="6.58444">
        <ele>6.861662</ele>
        <time>2019-08-30T07:13:42Z</time>
      </trkpt>
      <trkpt lat="43.25509" lon="6.58485">
        <ele>7.18</ele>
        <time>2019-08-30T07:14:33Z</time>
      </trkpt>
      <trkpt lat="43.25538" lon="6.58538">
        <ele>8.01125</ele>
        <time>2019-08-30T07:14:41Z</time>
      </trkpt>
      <trkpt lat="43.25578" lon="6.58577">
        <ele>8.58625</ele>
        <time>2019-08-30T07:14:50Z</time>
      </trkpt>
      <trkpt lat="43.25548" lon="6.58582">
        <ele>8.71125</ele>
        <time>2019-08-30T07:15:04Z</time>
      </trkpt>
      <trkpt lat="43.25514" lon="6.58537">
        <ele>8.0125</ele>
        <time>2019-08-30T07:15:13Z</time>
      </trkpt>
      <trkpt lat="43.25482" lon="6.58488">
        <ele>7.25125</ele>
        <time>2019-08-30T07:15:25Z</time>
      </trkpt>
      <trkpt lat="43.25448" lon="6.58491">
        <ele>8</ele>
        <time>2019-08-30T07:15:40Z</time>
      </trkpt>
      <trkpt lat="43.25419" lon="6.58508">
        <ele>8.935</ele>
        <time>2019-08-30T07:16:00Z</time>
      </trkpt>
      <trkpt lat="43.2538" lon="6.58461">
        <ele>8.906981</ele>
        <time>2019-08-30T07:16:11Z</time>
      </trkpt>
      <trkpt lat="43.25339" lon="6.58427">
        <ele>8.508412</ele>
        <time>2019-08-30T07:16:22Z</time>
      </trkpt>
      <trkpt lat="43.25291" lon="6.58401">
        <ele>8.605</ele>
        <time>2019-08-30T07:16:33Z</time>
      </trkpt>
      <trkpt lat="43.25249" lon="6.58366">
        <ele>9.525</ele>
        <time>2019-08-30T07:16:42Z</time>
      </trkpt>
      <trkpt lat="43.25216" lon="6.58321">
        <ele>9.667422</ele>
        <time>2019-08-30T07:16:50Z</time>
      </trkpt>
      <trkpt lat="43.2518" lon="6.58275">
        <ele>9.925</ele>
        <time>2019-08-30T07:16:59Z</time>
      </trkpt>
      <trkpt lat="43.2514" lon="6.58234">
        <ele>10.63825</ele>
        <time>2019-08-30T07:17:09Z</time>
      </trkpt>
      <trkpt lat="43.251" lon="6.58194">
        <ele>11.3796</ele>
        <time>2019-08-30T07:17:18Z</time>
      </trkpt>
      <trkpt lat="43.25062" lon="6.58159">
        <ele>12.202562</ele>
        <time>2019-08-30T07:17:26Z</time>
      </trkpt>
      <trkpt lat="43.25017" lon="6.58138">
        <ele>13.40585</ele>
        <time>2019-08-30T07:17:36Z</time>
      </trkpt>
      <trkpt lat="43.24969" lon="6.58113">
        <ele>14.987735</ele>
        <time>2019-08-30T07:17:47Z</time>
      </trkpt>
      <trkpt lat="43.24924" lon="6.58094">
        <ele>15.1868</ele>
        <time>2019-08-30T07:17:56Z</time>
      </trkpt>
      <trkpt lat="43.24877" lon="6.58081">
        <ele>16.267138</ele>
        <time>2019-08-30T07:18:06Z</time>
      </trkpt>
      <trkpt lat="43.24833" lon="6.58053">
        <ele>15.001525</ele>
        <time>2019-08-30T07:18:16Z</time>
      </trkpt>
      <trkpt lat="43.24792" lon="6.58019">
        <ele>16.012163</ele>
        <time>2019-08-30T07:18:26Z</time>
      </trkpt>
      <trkpt lat="43.24764" lon="6.57963">
        <ele>13.632531</ele>
        <time>2019-08-30T07:18:36Z</time>
      </trkpt>
      <trkpt lat="43.24751" lon="6.579">
        <ele>11.9275</ele>
        <time>2019-08-30T07:18:45Z</time>
      </trkpt>
      <trkpt lat="43.24731" lon="6.57839">
        <ele>12.061</ele>
        <time>2019-08-30T07:18:54Z</time>
      </trkpt>
      <trkpt lat="43.2469" lon="6.57803">
        <ele>12.927078</ele>
        <time>2019-08-30T07:19:03Z</time>
      </trkpt>
      <trkpt lat="43.24649" lon="6.57773">
        <ele>13.40625</ele>
        <time>2019-08-30T07:19:12Z</time>
      </trkpt>
      <trkpt lat="43.24606" lon="6.57739">
        <ele>14.89875</ele>
        <time>2019-08-30T07:19:22Z</time>
      </trkpt>
      <trkpt lat="43.24573" lon="6.5769">
        <ele>15.921025</ele>
        <time>2019-08-30T07:19:32Z</time>
      </trkpt>
      <trkpt lat="43.24545" lon="6.57633">
        <ele>16</ele>
        <time>2019-08-30T07:19:42Z</time>
      </trkpt>
      <trkpt lat="43.24517" lon="6.57583">
        <ele>16</ele>
        <time>2019-08-30T07:19:51Z</time>
      </trkpt>
      <trkpt lat="43.24475" lon="6.57552">
        <ele>16.024628</ele>
        <time>2019-08-30T07:20:01Z</time>
      </trkpt>
      <trkpt lat="43.24441" lon="6.57509">
        <ele>15.961731</ele>
        <time>2019-08-30T07:20:10Z</time>
      </trkpt>
      <trkpt lat="43.24422" lon="6.57447">
        <ele>16.119732</ele>
        <time>2019-08-30T07:20:20Z</time>
      </trkpt>
      <trkpt lat="43.24406" lon="6.57385">
        <ele>16.559999</ele>
        <time>2019-08-30T07:20:29Z</time>
      </trkpt>
      <trkpt lat="43.24389" lon="6.57326">
        <ele>16.905001</ele>
        <time>2019-08-30T07:20:38Z</time>
      </trkpt>
      <trkpt lat="43.24417" lon="6.57303">
        <ele>15.794119</ele>
        <time>2019-08-30T07:20:52Z</time>
      </trkpt>
      <trkpt lat="43.24465" lon="6.57297">
        <ele>14.56</ele>
        <time>2019-08-30T07:21:02Z</time>
      </trkpt>
      <trkpt lat="43.24502" lon="6.57258">
        <ele>14</ele>
        <time>2019-08-30T07:21:11Z</time>
      </trkpt>
      <trkpt lat="43.24527" lon="6.57201">
        <ele>14.5075</ele>
        <time>2019-08-30T07:21:21Z</time>
      </trkpt>
      <trkpt lat="43.2455" lon="6.57146">
        <ele>16.0425</ele>
        <time>2019-08-30T07:21:30Z</time>
      </trkpt>
      <trkpt lat="43.24569" lon="6.57091">
        <ele>18.596251</ele>
        <time>2019-08-30T07:22:53Z</time>
      </trkpt>
      <trkpt lat="43.24529" lon="6.57063">
        <ele>19.009594</ele>
        <time>2019-08-30T07:23:07Z</time>
      </trkpt>
      <trkpt lat="43.24486" lon="6.57036">
        <ele>18.9625</ele>
        <time>2019-08-30T07:23:21Z</time>
      </trkpt>
      <trkpt lat="43.24442" lon="6.57004">
        <ele>18.897501</ele>
        <time>2019-08-30T07:23:32Z</time>
      </trkpt>
      <trkpt lat="43.24408" lon="6.56971">
        <ele>19.151125</ele>
        <time>2019-08-30T07:23:53Z</time>
      </trkpt>
      <trkpt lat="43.24402" lon="6.56916">
        <ele>21.1334</ele>
        <time>2019-08-30T07:24:22Z</time>
      </trkpt>
      <trkpt lat="43.24407" lon="6.56851">
        <ele>23.0958</ele>
        <time>2019-08-30T07:24:36Z</time>
      </trkpt>
      <trkpt lat="43.24422" lon="6.56792">
        <ele>25.253231</ele>
        <time>2019-08-30T07:24:52Z</time>
      </trkpt>
      <trkpt lat="43.24443" lon="6.56735">
        <ele>26.93305</ele>
        <time>2019-08-30T07:25:12Z</time>
      </trkpt>
      <trkpt lat="43.24463" lon="6.56674">
        <ele>28.841171</ele>
        <time>2019-08-30T07:25:34Z</time>
      </trkpt>
      <trkpt lat="43.24484" lon="6.56617">
        <ele>32.410492</ele>
        <time>2019-08-30T07:25:56Z</time>
      </trkpt>
      <trkpt lat="43.24491" lon="6.56553">
        <ele>37.713749</ele>
        <time>2019-08-30T07:26:20Z</time>
      </trkpt>
      <trkpt lat="43.24488" lon="6.56486">
        <ele>44.207314</ele>
        <time>2019-08-30T07:26:48Z</time>
      </trkpt>
      <trkpt lat="43.24477" lon="6.56411">
        <ele>51.421314</ele>
        <time>2019-08-30T07:27:17Z</time>
      </trkpt>
      <trkpt lat="43.24468" lon="6.56341">
        <ele>57.111252</ele>
        <time>2019-08-30T07:27:48Z</time>
      </trkpt>
      <trkpt lat="43.24445" lon="6.56277">
        <ele>60.41502</ele>
        <time>2019-08-30T07:28:21Z</time>
      </trkpt>
      <trkpt lat="43.24428" lon="6.562">
        <ele>66.565002</ele>
        <time>2019-08-30T07:28:55Z</time>
      </trkpt>
      <trkpt lat="43.24425" lon="6.56131">
        <ele>69.974998</ele>
        <time>2019-08-30T07:29:25Z</time>
      </trkpt>
      <trkpt lat="43.2439" lon="6.56101">
        <ele>71.215614</ele>
        <time>2019-08-30T07:29:48Z</time>
      </trkpt>
      <trkpt lat="43.24344" lon="6.56104">
        <ele>72.16375</ele>
        <time>2019-08-30T07:30:28Z</time>
      </trkpt>
      <trkpt lat="43.24297" lon="6.56097">
        <ele>73.271347</ele>
        <time>2019-08-30T07:30:43Z</time>
      </trkpt>
      <trkpt lat="43.24252" lon="6.56082">
        <ele>75.505753</ele>
        <time>2019-08-30T07:30:58Z</time>
      </trkpt>
      <trkpt lat="43.2421" lon="6.56061">
        <ele>80.920959</ele>
        <time>2019-08-30T07:31:19Z</time>
      </trkpt>
      <trkpt lat="43.24173" lon="6.56097">
        <ele>85.813744</ele>
        <time>2019-08-30T07:31:49Z</time>
      </trkpt>
      <trkpt lat="43.2413" lon="6.56113">
        <ele>90.602249</ele>
        <time>2019-08-30T07:32:20Z</time>
      </trkpt>
      <trkpt lat="43.24104" lon="6.56058">
        <ele>97.814766</ele>
        <time>2019-08-30T07:32:57Z</time>
      </trkpt>
      <trkpt lat="43.24079" lon="6.56004">
        <ele>103.066803</ele>
        <time>2019-08-30T07:33:31Z</time>
      </trkpt>
      <trkpt lat="43.24044" lon="6.55959">
        <ele>106.372498</ele>
        <time>2019-08-30T07:33:57Z</time>
      </trkpt>
      <trkpt lat="43.24002" lon="6.55938">
        <ele>108.830124</ele>
        <time>2019-08-30T07:34:15Z</time>
      </trkpt>
      <trkpt lat="43.23957" lon="6.55945">
        <ele>110.294785</ele>
        <time>2019-08-30T07:34:36Z</time>
      </trkpt>
      <trkpt lat="43.2391" lon="6.55944">
        <ele>112.349998</ele>
        <time>2019-08-30T07:34:55Z</time>
      </trkpt>
      <trkpt lat="43.23863" lon="6.55935">
        <ele>117.735001</ele>
        <time>2019-08-30T07:35:11Z</time>
      </trkpt>
      <trkpt lat="43.23817" lon="6.55922">
        <ele>123.718399</ele>
        <time>2019-08-30T07:35:30Z</time>
      </trkpt>
      <trkpt lat="43.23775" lon="6.55922">
        <ele>127.785812</ele>
        <time>2019-08-30T07:35:55Z</time>
      </trkpt>
      <trkpt lat="43.23727" lon="6.55935">
        <ele>130.295395</ele>
        <time>2019-08-30T07:36:16Z</time>
      </trkpt>
      <trkpt lat="43.2368" lon="6.55918">
        <ele>127.653679</ele>
        <time>2019-08-30T07:36:24Z</time>
      </trkpt>
      <trkpt lat="43.23635" lon="6.55888">
        <ele>124.764999</ele>
        <time>2019-08-30T07:36:31Z</time>
      </trkpt>
      <trkpt lat="43.23596" lon="6.55847">
        <ele>118.765778</ele>
        <time>2019-08-30T07:36:41Z</time>
      </trkpt>
      <trkpt lat="43.23547" lon="6.55811">
        <ele>109.145164</ele>
        <time>2019-08-30T07:36:49Z</time>
      </trkpt>
      <trkpt lat="43.23509" lon="6.5578">
        <ele>104.407791</ele>
        <time>2019-08-30T07:36:55Z</time>
      </trkpt>
      <trkpt lat="43.23463" lon="6.5575">
        <ele>102.932022</ele>
        <time>2019-08-30T07:37:03Z</time>
      </trkpt>
      <trkpt lat="43.23418" lon="6.55727">
        <ele>101.82373</ele>
        <time>2019-08-30T07:37:10Z</time>
      </trkpt>
      <trkpt lat="43.23382" lon="6.55685">
        <ele>97.058128</ele>
        <time>2019-08-30T07:37:20Z</time>
      </trkpt>
      <trkpt lat="43.23346" lon="6.55631">
        <ele>91.14994</ele>
        <time>2019-08-30T07:37:27Z</time>
      </trkpt>
      <trkpt lat="43.23306" lon="6.55593">
        <ele>87.771202</ele>
        <time>2019-08-30T07:37:32Z</time>
      </trkpt>
      <trkpt lat="43.23267" lon="6.55551">
        <ele>88.081627</ele>
        <time>2019-08-30T07:37:38Z</time>
      </trkpt>
      <trkpt lat="43.23228" lon="6.55519">
        <ele>90.420998</ele>
        <time>2019-08-30T07:37:49Z</time>
      </trkpt>
      <trkpt lat="43.23185" lon="6.55497">
        <ele>92.739998</ele>
        <time>2019-08-30T07:38:06Z</time>
      </trkpt>
      <trkpt lat="43.2314" lon="6.55481">
        <ele>93.483002</ele>
        <time>2019-08-30T07:38:23Z</time>
      </trkpt>
      <trkpt lat="43.23106" lon="6.55441">
        <ele>92.784607</ele>
        <time>2019-08-30T07:38:35Z</time>
      </trkpt>
      <trkpt lat="43.23071" lon="6.5539">
        <ele>90.186172</ele>
        <time>2019-08-30T07:38:42Z</time>
      </trkpt>
      <trkpt lat="43.23035" lon="6.55339">
        <ele>84.908752</ele>
        <time>2019-08-30T07:38:49Z</time>
      </trkpt>
      <trkpt lat="43.22995" lon="6.55296">
        <ele>82.6465</ele>
        <time>2019-08-30T07:38:56Z</time>
      </trkpt>
      <trkpt lat="43.22957" lon="6.55259">
        <ele>83.458496</ele>
        <time>2019-08-30T07:39:08Z</time>
      </trkpt>
      <trkpt lat="43.22929" lon="6.55208">
        <ele>86.941345</ele>
        <time>2019-08-30T07:39:22Z</time>
      </trkpt>
      <trkpt lat="43.22899" lon="6.55161">
        <ele>88.974998</ele>
        <time>2019-08-30T07:39:41Z</time>
      </trkpt>
      <trkpt lat="43.22875" lon="6.55108">
        <ele>85.432236</ele>
        <time>2019-08-30T07:39:54Z</time>
      </trkpt>
      <trkpt lat="43.22891" lon="6.55063">
        <ele>81.693314</ele>
        <time>2019-08-30T07:40:06Z</time>
      </trkpt>
      <trkpt lat="43.22938" lon="6.5506">
        <ele>79.804298</ele>
        <time>2019-08-30T07:40:18Z</time>
      </trkpt>
      <trkpt lat="43.22929" lon="6.55023">
        <ele>76.439911</ele>
        <time>2019-08-30T07:40:33Z</time>
      </trkpt>
      <trkpt lat="43.22884" lon="6.55031">
        <ele>79.750946</ele>
        <time>2019-08-30T07:40:52Z</time>
      </trkpt>
      <trkpt lat="43.22837" lon="6.55028">
        <ele>79.466171</ele>
        <time>2019-08-30T07:41:13Z</time>
      </trkpt>
      <trkpt lat="43.22793" lon="6.54998">
        <ele>81.107475</ele>
        <time>2019-08-30T07:41:30Z</time>
      </trkpt>
      <trkpt lat="43.2275" lon="6.54975">
        <ele>84.57</ele>
        <time>2019-08-30T07:41:46Z</time>
      </trkpt>
      <trkpt lat="43.22705" lon="6.54975">
        <ele>83.955002</ele>
        <time>2019-08-30T07:42:01Z</time>
      </trkpt>
      <trkpt lat="43.2266" lon="6.54963">
        <ele>82.683998</ele>
        <time>2019-08-30T07:42:17Z</time>
      </trkpt>
      <trkpt lat="43.22628" lon="6.54916">
        <ele>86.312874</ele>
        <time>2019-08-30T07:42:33Z</time>
      </trkpt>
      <trkpt lat="43.22594" lon="6.54874">
        <ele>86.959717</ele>
        <time>2019-08-30T07:42:50Z</time>
      </trkpt>
      <trkpt lat="43.22573" lon="6.5482">
        <ele>93.01165</ele>
        <time>2019-08-30T07:43:09Z</time>
      </trkpt>
      <trkpt lat="43.2254" lon="6.54777">
        <ele>92.447563</ele>
        <time>2019-08-30T07:43:30Z</time>
      </trkpt>
      <trkpt lat="43.22524" lon="6.54718">
        <ele>97.117126</ele>
        <time>2019-08-30T07:43:51Z</time>
      </trkpt>
      <trkpt lat="43.22527" lon="6.54655">
        <ele>105.410004</ele>
        <time>2019-08-30T07:44:14Z</time>
      </trkpt>
      <trkpt lat="43.22501" lon="6.54605">
        <ele>103.765511</ele>
        <time>2019-08-30T07:44:43Z</time>
      </trkpt>
      <trkpt lat="43.2249" lon="6.54545">
        <ele>110.601112</ele>
        <time>2019-08-30T07:45:09Z</time>
      </trkpt>
      <trkpt lat="43.22469" lon="6.54494">
        <ele>111.077499</ele>
        <time>2019-08-30T07:45:34Z</time>
      </trkpt>
      <trkpt lat="43.22444" lon="6.54439">
        <ele>116.1325</ele>
        <time>2019-08-30T07:46:01Z</time>
      </trkpt>
      <trkpt lat="43.22425" lon="6.54383">
        <ele>120.914238</ele>
        <time>2019-08-30T07:46:40Z</time>
      </trkpt>
      <trkpt lat="43.22395" lon="6.54334">
        <ele>123.631935</ele>
        <time>2019-08-30T07:47:03Z</time>
      </trkpt>
      <trkpt lat="43.22365" lon="6.54283">
        <ele>127.013878</ele>
        <time>2019-08-30T07:47:28Z</time>
      </trkpt>
      <trkpt lat="43.22339" lon="6.5423">
        <ele>129.951782</ele>
        <time>2019-08-30T07:47:52Z</time>
      </trkpt>
      <trkpt lat="43.22318" lon="6.54174">
        <ele>133.942764</ele>
        <time>2019-08-30T07:48:17Z</time>
      </trkpt>
      <trkpt lat="43.22301" lon="6.54116">
        <ele>141.800812</ele>
        <time>2019-08-30T07:48:43Z</time>
      </trkpt>
      <trkpt lat="43.22271" lon="6.54072">
        <ele>140.367966</ele>
        <time>2019-08-30T07:49:11Z</time>
      </trkpt>
      <trkpt lat="43.22257" lon="6.54013">
        <ele>148.066315</ele>
        <time>2019-08-30T07:49:36Z</time>
      </trkpt>
      <trkpt lat="43.22242" lon="6.53954">
        <ele>155.018539</ele>
        <time>2019-08-30T07:50:03Z</time>
      </trkpt>
      <trkpt lat="43.22211" lon="6.5391">
        <ele>155.818558</ele>
        <time>2019-08-30T07:50:30Z</time>
      </trkpt>
      <trkpt lat="43.22168" lon="6.53886">
        <ele>156.554596</ele>
        <time>2019-08-30T07:50:57Z</time>
      </trkpt>
      <trkpt lat="43.22124" lon="6.53866">
        <ele>162.163269</ele>
        <time>2019-08-30T07:51:23Z</time>
      </trkpt>
      <trkpt lat="43.2208" lon="6.53847">
        <ele>166.59137</ele>
        <time>2019-08-30T07:51:52Z</time>
      </trkpt>
      <trkpt lat="43.22035" lon="6.53828">
        <ele>173.137024</ele>
        <time>2019-08-30T07:52:18Z</time>
      </trkpt>
      <trkpt lat="43.2199" lon="6.53834">
        <ele>175.086243</ele>
        <time>2019-08-30T07:52:47Z</time>
      </trkpt>
      <trkpt lat="43.21948" lon="6.53851">
        <ele>184.093185</ele>
        <time>2019-08-30T07:53:15Z</time>
      </trkpt>
      <trkpt lat="43.21936" lon="6.53912">
        <ele>182.8004</ele>
        <time>2019-08-30T07:53:43Z</time>
      </trkpt>
      <trkpt lat="43.21916" lon="6.5397">
        <ele>183.770493</ele>
        <time>2019-08-30T07:54:10Z</time>
      </trkpt>
      <trkpt lat="43.2188" lon="6.54008">
        <ele>186.941223</ele>
        <time>2019-08-30T07:54:36Z</time>
      </trkpt>
      <trkpt lat="43.21838" lon="6.54035">
        <ele>194.835022</ele>
        <time>2019-08-30T07:55:04Z</time>
      </trkpt>
      <trkpt lat="43.21792" lon="6.54042">
        <ele>203.066956</ele>
        <time>2019-08-30T07:55:31Z</time>
      </trkpt>
      <trkpt lat="43.21748" lon="6.54045">
        <ele>205.641602</ele>
        <time>2019-08-30T07:55:57Z</time>
      </trkpt>
      <trkpt lat="43.21708" lon="6.54053">
        <ele>209.537918</ele>
        <time>2019-08-30T07:56:22Z</time>
      </trkpt>
      <trkpt lat="43.21742" lon="6.54098">
        <ele>205.309204</ele>
        <time>2019-08-30T07:56:45Z</time>
      </trkpt>
      <trkpt lat="43.21776" lon="6.54114">
        <ele>206.900406</ele>
        <time>2019-08-30T07:57:07Z</time>
      </trkpt>
      <trkpt lat="43.21823" lon="6.54124">
        <ele>209.520996</ele>
        <time>2019-08-30T07:57:29Z</time>
      </trkpt>
      <trkpt lat="43.21867" lon="6.54142">
        <ele>212.087753</ele>
        <time>2019-08-30T07:57:51Z</time>
      </trkpt>
      <trkpt lat="43.21914" lon="6.54152">
        <ele>217.691223</ele>
        <time>2019-08-30T07:58:15Z</time>
      </trkpt>
      <trkpt lat="43.21955" lon="6.54175">
        <ele>216.994858</ele>
        <time>2019-08-30T07:58:43Z</time>
      </trkpt>
      <trkpt lat="43.2197" lon="6.54231">
        <ele>216.716187</ele>
        <time>2019-08-30T07:59:12Z</time>
      </trkpt>
      <trkpt lat="43.21942" lon="6.54279">
        <ele>219.958755</ele>
        <time>2019-08-30T07:59:38Z</time>
      </trkpt>
      <trkpt lat="43.21898" lon="6.543">
        <ele>226.202652</ele>
        <time>2019-08-30T08:00:06Z</time>
      </trkpt>
      <trkpt lat="43.21855" lon="6.54283">
        <ele>233.80835</ele>
        <time>2019-08-30T08:00:32Z</time>
      </trkpt>
      <trkpt lat="43.21815" lon="6.54258">
        <ele>236.182388</ele>
        <time>2019-08-30T08:00:57Z</time>
      </trkpt>
      <trkpt lat="43.2177" lon="6.54272">
        <ele>237.859283</ele>
        <time>2019-08-30T08:01:41Z</time>
      </trkpt>
      <trkpt lat="43.21724" lon="6.54277">
        <ele>242.114197</ele>
        <time>2019-08-30T08:01:55Z</time>
      </trkpt>
      <trkpt lat="43.21702" lon="6.54227">
        <ele>241.586807</ele>
        <time>2019-08-30T08:02:12Z</time>
      </trkpt>
      <trkpt lat="43.21688" lon="6.54166">
        <ele>238.083603</ele>
        <time>2019-08-30T08:02:29Z</time>
      </trkpt>
      <trkpt lat="43.21643" lon="6.54146">
        <ele>246.467499</ele>
        <time>2019-08-30T08:02:45Z</time>
      </trkpt>
      <trkpt lat="43.216" lon="6.54129">
        <ele>249.292496</ele>
        <time>2019-08-30T08:03:01Z</time>
      </trkpt>
      <trkpt lat="43.21561" lon="6.54092">
        <ele>249.218445</ele>
        <time>2019-08-30T08:03:17Z</time>
      </trkpt>
      <trkpt lat="43.21528" lon="6.5405">
        <ele>245.342621</ele>
        <time>2019-08-30T08:03:34Z</time>
      </trkpt>
      <trkpt lat="43.21487" lon="6.5407">
        <ele>254.836502</ele>
        <time>2019-08-30T08:03:53Z</time>
      </trkpt>
      <trkpt lat="43.21441" lon="6.54067">
        <ele>256.852386</ele>
        <time>2019-08-30T08:04:19Z</time>
      </trkpt>
      <trkpt lat="43.21401" lon="6.54096">
        <ele>266.096161</ele>
        <time>2019-08-30T08:04:46Z</time>
      </trkpt>
      <trkpt lat="43.21379" lon="6.54043">
        <ele>263.373169</ele>
        <time>2019-08-30T08:05:14Z</time>
      </trkpt>
      <trkpt lat="43.2134" lon="6.54011">
        <ele>269.889618</ele>
        <time>2019-08-30T08:05:42Z</time>
      </trkpt>
      <trkpt lat="43.21296" lon="6.54">
        <ele>275.658447</ele>
        <time>2019-08-30T08:06:13Z</time>
      </trkpt>
      <trkpt lat="43.21255" lon="6.53992">
        <ele>280.388</ele>
        <time>2019-08-30T08:06:41Z</time>
      </trkpt>
      <trkpt lat="43.21268" lon="6.53932">
        <ele>278.34433</ele>
        <time>2019-08-30T08:07:09Z</time>
      </trkpt>
      <trkpt lat="43.21245" lon="6.53877">
        <ele>283.621246</ele>
        <time>2019-08-30T08:07:35Z</time>
      </trkpt>
      <trkpt lat="43.21222" lon="6.53823">
        <ele>289.019226</ele>
        <time>2019-08-30T08:08:01Z</time>
      </trkpt>
      <trkpt lat="43.21183" lon="6.5379">
        <ele>294.199066</ele>
        <time>2019-08-30T08:08:31Z</time>
      </trkpt>
      <trkpt lat="43.21141" lon="6.53765">
        <ele>301.426605</ele>
        <time>2019-08-30T08:09:00Z</time>
      </trkpt>
      <trkpt lat="43.21099" lon="6.53741">
        <ele>303.974915</ele>
        <time>2019-08-30T08:09:27Z</time>
      </trkpt>
      <trkpt lat="43.21056" lon="6.53724">
        <ele>305.446259</ele>
        <time>2019-08-30T08:09:53Z</time>
      </trkpt>
      <trkpt lat="43.21044" lon="6.53682">
        <ele>308.452515</ele>
        <time>2019-08-30T08:10:20Z</time>
      </trkpt>
      <trkpt lat="43.2107" lon="6.53629">
        <ele>312.48941</ele>
        <time>2019-08-30T08:10:48Z</time>
      </trkpt>
      <trkpt lat="43.2109" lon="6.53574">
        <ele>317.996826</ele>
        <time>2019-08-30T08:11:17Z</time>
      </trkpt>
      <trkpt lat="43.21071" lon="6.53518">
        <ele>323.445007</ele>
        <time>2019-08-30T08:11:50Z</time>
      </trkpt>
      <trkpt lat="43.21044" lon="6.53466">
        <ele>328.162506</ele>
        <time>2019-08-30T08:12:21Z</time>
      </trkpt>
      <trkpt lat="43.21038" lon="6.53405">
        <ele>332.300262</ele>
        <time>2019-08-30T08:12:50Z</time>
      </trkpt>
      <trkpt lat="43.21033" lon="6.53343">
        <ele>336.690186</ele>
        <time>2019-08-30T08:13:20Z</time>
      </trkpt>
      <trkpt lat="43.21016" lon="6.53286">
        <ele>340.973999</ele>
        <time>2019-08-30T08:13:50Z</time>
      </trkpt>
      <trkpt lat="43.20988" lon="6.53234">
        <ele>344.932465</ele>
        <time>2019-08-30T08:14:19Z</time>
      </trkpt>
      <trkpt lat="43.20968" lon="6.53179">
        <ele>346.641632</ele>
        <time>2019-08-30T08:14:46Z</time>
      </trkpt>
      <trkpt lat="43.2095" lon="6.53119">
        <ele>347.243256</ele>
        <time>2019-08-30T08:15:12Z</time>
      </trkpt>
      <trkpt lat="43.20931" lon="6.5306">
        <ele>349.739044</ele>
        <time>2019-08-30T08:15:33Z</time>
      </trkpt>
      <trkpt lat="43.20917" lon="6.52998">
        <ele>349.988159</ele>
        <time>2019-08-30T08:15:52Z</time>
      </trkpt>
      <trkpt lat="43.20896" lon="6.52941">
        <ele>353.921936</ele>
        <time>2019-08-30T08:16:07Z</time>
      </trkpt>
      <trkpt lat="43.20889" lon="6.52882">
        <ele>353.936523</ele>
        <time>2019-08-30T08:16:24Z</time>
      </trkpt>
      <trkpt lat="43.20892" lon="6.52819">
        <ele>351.433411</ele>
        <time>2019-08-30T08:16:37Z</time>
      </trkpt>
      <trkpt lat="43.20899" lon="6.52755">
        <ele>348.316711</ele>
        <time>2019-08-30T08:16:47Z</time>
      </trkpt>
      <trkpt lat="43.20901" lon="6.5269">
        <ele>347.492493</ele>
        <time>2019-08-30T08:16:57Z</time>
      </trkpt>
      <trkpt lat="43.209" lon="6.52629">
        <ele>348.126923</ele>
        <time>2019-08-30T08:17:06Z</time>
      </trkpt>
      <trkpt lat="43.20904" lon="6.52567">
        <ele>346.084259</ele>
        <time>2019-08-30T08:17:15Z</time>
      </trkpt>
      <trkpt lat="43.20911" lon="6.52504">
        <ele>346.04303</ele>
        <time>2019-08-30T08:17:23Z</time>
      </trkpt>
      <trkpt lat="43.20935" lon="6.52445">
        <ele>342.131256</ele>
        <time>2019-08-30T08:17:31Z</time>
      </trkpt>
      <trkpt lat="43.20974" lon="6.52415">
        <ele>336.797516</ele>
        <time>2019-08-30T08:17:39Z</time>
      </trkpt>
      <trkpt lat="43.20949" lon="6.52371">
        <ele>338.44751</ele>
        <time>2019-08-30T08:18:13Z</time>
      </trkpt>
      <trkpt lat="43.20906" lon="6.52353">
        <ele>340.158661</ele>
        <time>2019-08-30T08:18:28Z</time>
      </trkpt>
      <trkpt lat="43.2086" lon="6.52339">
        <ele>338.622467</ele>
        <time>2019-08-30T08:18:38Z</time>
      </trkpt>
      <trkpt lat="43.20821" lon="6.52303">
        <ele>335.287567</ele>
        <time>2019-08-30T08:18:47Z</time>
      </trkpt>
      <trkpt lat="43.20778" lon="6.52282">
        <ele>337.287201</ele>
        <time>2019-08-30T08:18:56Z</time>
      </trkpt>
      <trkpt lat="43.20732" lon="6.52263">
        <ele>336.128662</ele>
        <time>2019-08-30T08:19:05Z</time>
      </trkpt>
      <trkpt lat="43.20687" lon="6.52239">
        <ele>332.96521</ele>
        <time>2019-08-30T08:19:14Z</time>
      </trkpt>
      <trkpt lat="43.20652" lon="6.52201">
        <ele>331.177979</ele>
        <time>2019-08-30T08:19:28Z</time>
      </trkpt>
      <trkpt lat="43.2063" lon="6.52146">
        <ele>335.786743</ele>
        <time>2019-08-30T08:19:45Z</time>
      </trkpt>
      <trkpt lat="43.20596" lon="6.52103">
        <ele>337.92038</ele>
        <time>2019-08-30T08:20:01Z</time>
      </trkpt>
      <trkpt lat="43.2056" lon="6.52064">
        <ele>336.824005</ele>
        <time>2019-08-30T08:20:16Z</time>
      </trkpt>
      <trkpt lat="43.20529" lon="6.52016">
        <ele>343.994385</ele>
        <time>2019-08-30T08:20:30Z</time>
      </trkpt>
      <trkpt lat="43.20485" lon="6.5199">
        <ele>338.259613</ele>
        <time>2019-08-30T08:20:42Z</time>
      </trkpt>
      <trkpt lat="43.20449" lon="6.51952">
        <ele>344.067444</ele>
        <time>2019-08-30T08:20:54Z</time>
      </trkpt>
      <trkpt lat="43.20405" lon="6.51948">
        <ele>337.931061</ele>
        <time>2019-08-30T08:21:06Z</time>
      </trkpt>
      <trkpt lat="43.20357" lon="6.51951">
        <ele>333.836334</ele>
        <time>2019-08-30T08:21:17Z</time>
      </trkpt>
      <trkpt lat="43.20309" lon="6.51942">
        <ele>331.375</ele>
        <time>2019-08-30T08:21:27Z</time>
      </trkpt>
      <trkpt lat="43.20265" lon="6.51908">
        <ele>333.983521</ele>
        <time>2019-08-30T08:21:37Z</time>
      </trkpt>
      <trkpt lat="43.20217" lon="6.51906">
        <ele>331.756134</ele>
        <time>2019-08-30T08:21:46Z</time>
      </trkpt>
      <trkpt lat="43.20173" lon="6.5192">
        <ele>328.550018</ele>
        <time>2019-08-30T08:21:56Z</time>
      </trkpt>
      <trkpt lat="43.20125" lon="6.51919">
        <ele>329.538971</ele>
        <time>2019-08-30T08:22:07Z</time>
      </trkpt>
      <trkpt lat="43.20077" lon="6.51919">
        <ele>324.657501</ele>
        <time>2019-08-30T08:22:16Z</time>
      </trkpt>
      <trkpt lat="43.20035" lon="6.51893">
        <ele>325.011108</ele>
        <time>2019-08-30T08:22:24Z</time>
      </trkpt>
      <trkpt lat="43.19994" lon="6.51864">
        <ele>326.768494</ele>
        <time>2019-08-30T08:22:33Z</time>
      </trkpt>
      <trkpt lat="43.19947" lon="6.51863">
        <ele>318.848633</ele>
        <time>2019-08-30T08:22:43Z</time>
      </trkpt>
      <trkpt lat="43.19917" lon="6.51819">
        <ele>321.876343</ele>
        <time>2019-08-30T08:22:55Z</time>
      </trkpt>
      <trkpt lat="43.19895" lon="6.51753">
        <ele>328.464172</ele>
        <time>2019-08-30T08:26:18Z</time>
      </trkpt>
      <trkpt lat="43.19869" lon="6.51701">
        <ele>329.494476</ele>
        <time>2019-08-30T08:26:35Z</time>
      </trkpt>
      <trkpt lat="43.19843" lon="6.5165">
        <ele>329.084351</ele>
        <time>2019-08-30T08:26:51Z</time>
      </trkpt>
      <trkpt lat="43.1982" lon="6.51595">
        <ele>330.075012</ele>
        <time>2019-08-30T08:27:05Z</time>
      </trkpt>
      <trkpt lat="43.19794" lon="6.5154">
        <ele>331.406616</ele>
        <time>2019-08-30T08:27:18Z</time>
      </trkpt>
      <trkpt lat="43.19765" lon="6.5149">
        <ele>333.700012</ele>
        <time>2019-08-30T08:27:31Z</time>
      </trkpt>
      <trkpt lat="43.19723" lon="6.51458">
        <ele>333.288788</ele>
        <time>2019-08-30T08:27:45Z</time>
      </trkpt>
      <trkpt lat="43.19711" lon="6.51396">
        <ele>340.039032</ele>
        <time>2019-08-30T08:28:00Z</time>
      </trkpt>
      <trkpt lat="43.1971" lon="6.51335">
        <ele>346.711121</ele>
        <time>2019-08-30T08:28:18Z</time>
      </trkpt>
      <trkpt lat="43.19696" lon="6.51274">
        <ele>343.762817</ele>
        <time>2019-08-30T08:28:37Z</time>
      </trkpt>
      <trkpt lat="43.1968" lon="6.51216">
        <ele>343.323151</ele>
        <time>2019-08-30T08:28:58Z</time>
      </trkpt>
      <trkpt lat="43.19669" lon="6.51194">
        <ele>342.320923</ele>
        <time>2019-08-30T08:29:25Z</time>
      </trkpt>
      <trkpt lat="43.19668" lon="6.51137">
        <ele>342.238068</ele>
        <time>2019-08-30T08:30:05Z</time>
      </trkpt>
      <trkpt lat="43.19638" lon="6.51082">
        <ele>345.299988</ele>
        <time>2019-08-30T08:30:22Z</time>
      </trkpt>
      <trkpt lat="43.19608" lon="6.51034">
        <ele>345.966675</ele>
        <time>2019-08-30T08:30:36Z</time>
      </trkpt>
      <trkpt lat="43.19566" lon="6.51006">
        <ele>349.53891</ele>
        <time>2019-08-30T08:30:51Z</time>
      </trkpt>
      <trkpt lat="43.19518" lon="6.50994">
        <ele>354.291412</ele>
        <time>2019-08-30T08:31:07Z</time>
      </trkpt>
      <trkpt lat="43.19484" lon="6.50961">
        <ele>355.040253</ele>
        <time>2019-08-30T08:31:24Z</time>
      </trkpt>
      <trkpt lat="43.19458" lon="6.50908">
        <ele>352.033966</ele>
        <time>2019-08-30T08:31:42Z</time>
      </trkpt>
      <trkpt lat="43.19415" lon="6.50921">
        <ele>362.704987</ele>
        <time>2019-08-30T08:32:00Z</time>
      </trkpt>
      <trkpt lat="43.19368" lon="6.50914">
        <ele>370.348785</ele>
        <time>2019-08-30T08:32:22Z</time>
      </trkpt>
      <trkpt lat="43.19354" lon="6.50858">
        <ele>366.392303</ele>
        <time>2019-08-30T08:32:42Z</time>
      </trkpt>
      <trkpt lat="43.19326" lon="6.50804">
        <ele>372.425995</ele>
        <time>2019-08-30T08:33:03Z</time>
      </trkpt>
      <trkpt lat="43.19302" lon="6.50748">
        <ele>375.827179</ele>
        <time>2019-08-30T08:33:25Z</time>
      </trkpt>
      <trkpt lat="43.19304" lon="6.50681">
        <ele>373.059692</ele>
        <time>2019-08-30T08:33:42Z</time>
      </trkpt>
      <trkpt lat="43.19325" lon="6.50624">
        <ele>367.562988</ele>
        <time>2019-08-30T08:33:58Z</time>
      </trkpt>
      <trkpt lat="43.19305" lon="6.50568">
        <ele>377.809265</ele>
        <time>2019-08-30T08:34:13Z</time>
      </trkpt>
      <trkpt lat="43.19323" lon="6.50509">
        <ele>375.351563</ele>
        <time>2019-08-30T08:34:33Z</time>
      </trkpt>
      <trkpt lat="43.19344" lon="6.50452">
        <ele>377.993195</ele>
        <time>2019-08-30T08:34:52Z</time>
      </trkpt>
      <trkpt lat="43.19353" lon="6.50392">
        <ele>381.325043</ele>
        <time>2019-08-30T08:35:12Z</time>
      </trkpt>
      <trkpt lat="43.19367" lon="6.50332">
        <ele>383.386322</ele>
        <time>2019-08-30T08:35:35Z</time>
      </trkpt>
      <trkpt lat="43.19378" lon="6.50272">
        <ele>391.427277</ele>
        <time>2019-08-30T08:36:01Z</time>
      </trkpt>
      <trkpt lat="43.19423" lon="6.50251">
        <ele>392.088165</ele>
        <time>2019-08-30T08:36:24Z</time>
      </trkpt>
      <trkpt lat="43.19468" lon="6.50234">
        <ele>395.672485</ele>
        <time>2019-08-30T08:36:46Z</time>
      </trkpt>
      <trkpt lat="43.19513" lon="6.50217">
        <ele>395.445007</ele>
        <time>2019-08-30T08:37:08Z</time>
      </trkpt>
      <trkpt lat="43.1953" lon="6.50172">
        <ele>395.478882</ele>
        <time>2019-08-30T08:37:29Z</time>
      </trkpt>
      <trkpt lat="43.19489" lon="6.50143">
        <ele>402.917175</ele>
        <time>2019-08-30T08:37:50Z</time>
      </trkpt>
      <trkpt lat="43.19444" lon="6.50127">
        <ele>411.110321</ele>
        <time>2019-08-30T08:38:10Z</time>
      </trkpt>
      <trkpt lat="43.19414" lon="6.50084">
        <ele>415.460693</ele>
        <time>2019-08-30T08:38:30Z</time>
      </trkpt>
      <trkpt lat="43.19409" lon="6.50019">
        <ele>413.544922</ele>
        <time>2019-08-30T08:38:49Z</time>
      </trkpt>
      <trkpt lat="43.19408" lon="6.49957">
        <ele>410.93573</ele>
        <time>2019-08-30T08:39:09Z</time>
      </trkpt>
      <trkpt lat="43.19378" lon="6.49904">
        <ele>416.867401</ele>
        <time>2019-08-30T08:39:27Z</time>
      </trkpt>
      <trkpt lat="43.19344" lon="6.49862">
        <ele>421.095428</ele>
        <time>2019-08-30T08:39:46Z</time>
      </trkpt>
      <trkpt lat="43.19309" lon="6.49821">
        <ele>421.622253</ele>
        <time>2019-08-30T08:40:04Z</time>
      </trkpt>
      <trkpt lat="43.19271" lon="6.49793">
        <ele>428.595856</ele>
        <time>2019-08-30T08:40:23Z</time>
      </trkpt>
      <trkpt lat="43.19278" lon="6.49728">
        <ele>426.676605</ele>
        <time>2019-08-30T08:40:44Z</time>
      </trkpt>
      <trkpt lat="43.19291" lon="6.49663">
        <ele>423.185394</ele>
        <time>2019-08-30T08:41:04Z</time>
      </trkpt>
      <trkpt lat="43.19253" lon="6.49618">
        <ele>428.867645</ele>
        <time>2019-08-30T08:41:24Z</time>
      </trkpt>
      <trkpt lat="43.19208" lon="6.49623">
        <ele>439.140747</ele>
        <time>2019-08-30T08:41:44Z</time>
      </trkpt>
      <trkpt lat="43.19176" lon="6.49584">
        <ele>437.938446</ele>
        <time>2019-08-30T08:42:09Z</time>
      </trkpt>
      <trkpt lat="43.19163" lon="6.49513">
        <ele>437.03125</ele>
        <time>2019-08-30T08:42:32Z</time>
      </trkpt>
      <trkpt lat="43.19147" lon="6.49447">
        <ele>440.196533</ele>
        <time>2019-08-30T08:42:51Z</time>
      </trkpt>
      <trkpt lat="43.19121" lon="6.49392">
        <ele>443.551331</ele>
        <time>2019-08-30T08:43:08Z</time>
      </trkpt>
      <trkpt lat="43.19082" lon="6.49357">
        <ele>447.240753</ele>
        <time>2019-08-30T08:43:27Z</time>
      </trkpt>
      <trkpt lat="43.19042" lon="6.49361">
        <ele>450.583191</ele>
        <time>2019-08-30T08:43:45Z</time>
      </trkpt>
      <trkpt lat="43.19017" lon="6.49416">
        <ele>454.809814</ele>
        <time>2019-08-30T08:44:03Z</time>
      </trkpt>
      <trkpt lat="43.19006" lon="6.49478">
        <ele>459.620361</ele>
        <time>2019-08-30T08:44:17Z</time>
      </trkpt>
      <trkpt lat="43.18978" lon="6.49529">
        <ele>458.319183</ele>
        <time>2019-08-30T08:44:31Z</time>
      </trkpt>
      <trkpt lat="43.18944" lon="6.49572">
        <ele>460.149994</ele>
        <time>2019-08-30T08:44:44Z</time>
      </trkpt>
      <trkpt lat="43.18911" lon="6.49619">
        <ele>462.252502</ele>
        <time>2019-08-30T08:44:59Z</time>
      </trkpt>
      <trkpt lat="43.18872" lon="6.49658">
        <ele>461.073761</ele>
        <time>2019-08-30T08:45:15Z</time>
      </trkpt>
      <trkpt lat="43.18834" lon="6.49702">
        <ele>462.612335</ele>
        <time>2019-08-30T08:45:31Z</time>
      </trkpt>
      <trkpt lat="43.18798" lon="6.49741">
        <ele>465.660614</ele>
        <time>2019-08-30T08:45:45Z</time>
      </trkpt>
      <trkpt lat="43.18758" lon="6.49781">
        <ele>467.510651</ele>
        <time>2019-08-30T08:46:01Z</time>
      </trkpt>
      <trkpt lat="43.18713" lon="6.49804">
        <ele>466.712708</ele>
        <time>2019-08-30T08:46:15Z</time>
      </trkpt>
      <trkpt lat="43.18668" lon="6.49825">
        <ele>467.156128</ele>
        <time>2019-08-30T08:46:28Z</time>
      </trkpt>
      <trkpt lat="43.18621" lon="6.49835">
        <ele>465.673096</ele>
        <time>2019-08-30T08:46:43Z</time>
      </trkpt>
      <trkpt lat="43.18578" lon="6.49858">
        <ele>469.950958</ele>
        <time>2019-08-30T08:46:56Z</time>
      </trkpt>
      <trkpt lat="43.18536" lon="6.49836">
        <ele>468.315002</ele>
        <time>2019-08-30T08:47:11Z</time>
      </trkpt>
      <trkpt lat="43.18491" lon="6.49833">
        <ele>470.973297</ele>
        <time>2019-08-30T08:47:24Z</time>
      </trkpt>
      <trkpt lat="43.18445" lon="6.49833">
        <ele>470.743835</ele>
        <time>2019-08-30T08:47:41Z</time>
      </trkpt>
      <trkpt lat="43.18416" lon="6.49872">
        <ele>466.542572</ele>
        <time>2019-08-30T08:48:01Z</time>
      </trkpt>
      <trkpt lat="43.18388" lon="6.49861">
        <ele>468.13382</ele>
        <time>2019-08-30T08:49:35Z</time>
      </trkpt>
      <trkpt lat="43.18343" lon="6.49876">
        <ele>471.630035</ele>
        <time>2019-08-30T08:49:51Z</time>
      </trkpt>
      <trkpt lat="43.18298" lon="6.49869">
        <ele>472.128143</ele>
        <time>2019-08-30T08:50:05Z</time>
      </trkpt>
      <trkpt lat="43.18251" lon="6.49858">
        <ele>472.039612</ele>
        <time>2019-08-30T08:50:15Z</time>
      </trkpt>
      <trkpt lat="43.18203" lon="6.49843">
        <ele>468.285004</ele>
        <time>2019-08-30T08:50:22Z</time>
      </trkpt>
      <trkpt lat="43.18156" lon="6.49831">
        <ele>464.609589</ele>
        <time>2019-08-30T08:50:28Z</time>
      </trkpt>
      <trkpt lat="43.18114" lon="6.49806">
        <ele>461.094147</ele>
        <time>2019-08-30T08:50:34Z</time>
      </trkpt>
      <trkpt lat="43.18064" lon="6.49804">
        <ele>457.659515</ele>
        <time>2019-08-30T08:50:40Z</time>
      </trkpt>
      <trkpt lat="43.18017" lon="6.49808">
        <ele>450.888184</ele>
        <time>2019-08-30T08:50:47Z</time>
      </trkpt>
      <trkpt lat="43.18017" lon="6.4987">
        <ele>451.128967</ele>
        <time>2019-08-30T08:50:56Z</time>
      </trkpt>
      <trkpt lat="43.18028" lon="6.49937">
        <ele>449.486664</ele>
        <time>2019-08-30T08:51:04Z</time>
      </trkpt>
      <trkpt lat="43.18034" lon="6.49999">
        <ele>448.661713</ele>
        <time>2019-08-30T08:51:11Z</time>
      </trkpt>
      <trkpt lat="43.18025" lon="6.50064">
        <ele>448.656342</ele>
        <time>2019-08-30T08:51:17Z</time>
      </trkpt>
      <trkpt lat="43.17994" lon="6.50111">
        <ele>444.043823</ele>
        <time>2019-08-30T08:51:23Z</time>
      </trkpt>
      <trkpt lat="43.17964" lon="6.50162">
        <ele>436.880493</ele>
        <time>2019-08-30T08:51:30Z</time>
      </trkpt>
      <trkpt lat="43.17957" lon="6.50222">
        <ele>429.72052</ele>
        <time>2019-08-30T08:51:38Z</time>
      </trkpt>
      <trkpt lat="43.17952" lon="6.50161">
        <ele>431.090179</ele>
        <time>2019-08-30T08:51:48Z</time>
      </trkpt>
      <trkpt lat="43.17965" lon="6.50097">
        <ele>428.9039</ele>
        <time>2019-08-30T08:51:55Z</time>
      </trkpt>
      <trkpt lat="43.17983" lon="6.50032">
        <ele>425.495819</ele>
        <time>2019-08-30T08:52:02Z</time>
      </trkpt>
      <trkpt lat="43.17982" lon="6.49963">
        <ele>423.006012</ele>
        <time>2019-08-30T08:52:10Z</time>
      </trkpt>
      <trkpt lat="43.17945" lon="6.49921">
        <ele>410.763885</ele>
        <time>2019-08-30T08:52:19Z</time>
      </trkpt>
      <trkpt lat="43.17932" lon="6.49855">
        <ele>410.246582</ele>
        <time>2019-08-30T08:52:27Z</time>
      </trkpt>
      <trkpt lat="43.17902" lon="6.49797">
        <ele>402.680511</ele>
        <time>2019-08-30T08:52:34Z</time>
      </trkpt>
      <trkpt lat="43.17882" lon="6.49736">
        <ele>398.876251</ele>
        <time>2019-08-30T08:52:40Z</time>
      </trkpt>
      <trkpt lat="43.1786" lon="6.49681">
        <ele>395.468994</ele>
        <time>2019-08-30T08:52:46Z</time>
      </trkpt>
      <trkpt lat="43.17821" lon="6.49652">
        <ele>384.515381</ele>
        <time>2019-08-30T08:52:54Z</time>
      </trkpt>
      <trkpt lat="43.17782" lon="6.49617">
        <ele>377.688141</ele>
        <time>2019-08-30T08:53:02Z</time>
      </trkpt>
      <trkpt lat="43.17762" lon="6.49562">
        <ele>377.146088</ele>
        <time>2019-08-30T08:53:08Z</time>
      </trkpt>
      <trkpt lat="43.17726" lon="6.49514">
        <ele>371.636383</ele>
        <time>2019-08-30T08:53:15Z</time>
      </trkpt>
      <trkpt lat="43.177" lon="6.49457">
        <ele>371.842773</ele>
        <time>2019-08-30T08:53:23Z</time>
      </trkpt>
      <trkpt lat="43.17655" lon="6.49443">
        <ele>361.348694</ele>
        <time>2019-08-30T08:53:30Z</time>
      </trkpt>
      <trkpt lat="43.17626" lon="6.49402">
        <ele>359.713348</ele>
        <time>2019-08-30T08:53:40Z</time>
      </trkpt>
      <trkpt lat="43.17627" lon="6.49332">
        <ele>359.013763</ele>
        <time>2019-08-30T08:53:49Z</time>
      </trkpt>
      <trkpt lat="43.17607" lon="6.49273">
        <ele>350.5672</ele>
        <time>2019-08-30T08:53:56Z</time>
      </trkpt>
      <trkpt lat="43.17586" lon="6.49211">
        <ele>345.77652</ele>
        <time>2019-08-30T08:54:03Z</time>
      </trkpt>
      <trkpt lat="43.17574" lon="6.4914">
        <ele>341.815491</ele>
        <time>2019-08-30T08:54:09Z</time>
      </trkpt>
      <trkpt lat="43.17564" lon="6.49076">
        <ele>337.367004</ele>
        <time>2019-08-30T08:54:14Z</time>
      </trkpt>
      <trkpt lat="43.17554" lon="6.49009">
        <ele>330.425293</ele>
        <time>2019-08-30T08:54:19Z</time>
      </trkpt>
      <trkpt lat="43.17544" lon="6.48948">
        <ele>326.886749</ele>
        <time>2019-08-30T08:54:24Z</time>
      </trkpt>
      <trkpt lat="43.17534" lon="6.48885">
        <ele>325.004364</ele>
        <time>2019-08-30T08:54:32Z</time>
      </trkpt>
      <trkpt lat="43.17517" lon="6.48821">
        <ele>322.469116</ele>
        <time>2019-08-30T08:54:42Z</time>
      </trkpt>
      <trkpt lat="43.1748" lon="6.48768">
        <ele>319.663879</ele>
        <time>2019-08-30T08:54:49Z</time>
      </trkpt>
      <trkpt lat="43.17451" lon="6.48712">
        <ele>318.223114</ele>
        <time>2019-08-30T08:54:55Z</time>
      </trkpt>
      <trkpt lat="43.17438" lon="6.48647">
        <ele>315.796783</ele>
        <time>2019-08-30T08:55:01Z</time>
      </trkpt>
      <trkpt lat="43.1743" lon="6.48586">
        <ele>312.267975</ele>
        <time>2019-08-30T08:55:07Z</time>
      </trkpt>
      <trkpt lat="43.17421" lon="6.48516">
        <ele>309.777893</ele>
        <time>2019-08-30T08:55:14Z</time>
      </trkpt>
      <trkpt lat="43.17417" lon="6.48448">
        <ele>309.412811</ele>
        <time>2019-08-30T08:55:21Z</time>
      </trkpt>
      <trkpt lat="43.17412" lon="6.48383">
        <ele>308.329865</ele>
        <time>2019-08-30T08:55:27Z</time>
      </trkpt>
      <trkpt lat="43.17406" lon="6.48311">
        <ele>305.992615</ele>
        <time>2019-08-30T08:55:33Z</time>
      </trkpt>
      <trkpt lat="43.17395" lon="6.48244">
        <ele>304.474487</ele>
        <time>2019-08-30T08:55:39Z</time>
      </trkpt>
      <trkpt lat="43.1735" lon="6.48236">
        <ele>305.042084</ele>
        <time>2019-08-30T08:55:46Z</time>
      </trkpt>
      <trkpt lat="43.17303" lon="6.48227">
        <ele>300.709991</ele>
        <time>2019-08-30T08:55:54Z</time>
      </trkpt>
      <trkpt lat="43.17269" lon="6.48185">
        <ele>305.042511</ele>
        <time>2019-08-30T08:56:04Z</time>
      </trkpt>
      <trkpt lat="43.17225" lon="6.48163">
        <ele>301.627808</ele>
        <time>2019-08-30T08:56:18Z</time>
      </trkpt>
      <trkpt lat="43.1721" lon="6.48105">
        <ele>305.518829</ele>
        <time>2019-08-30T08:56:31Z</time>
      </trkpt>
      <trkpt lat="43.17189" lon="6.48051">
        <ele>308.604706</ele>
        <time>2019-08-30T08:56:43Z</time>
      </trkpt>
      <trkpt lat="43.17153" lon="6.48013">
        <ele>304.75647</ele>
        <time>2019-08-30T08:56:56Z</time>
      </trkpt>
      <trkpt lat="43.17115" lon="6.47972">
        <ele>305.256256</ele>
        <time>2019-08-30T08:57:09Z</time>
      </trkpt>
      <trkpt lat="43.17077" lon="6.47934">
        <ele>304.643677</ele>
        <time>2019-08-30T08:57:19Z</time>
      </trkpt>
      <trkpt lat="43.17037" lon="6.47898">
        <ele>306.407074</ele>
        <time>2019-08-30T08:57:29Z</time>
      </trkpt>
      <trkpt lat="43.16989" lon="6.47898">
        <ele>302.226227</ele>
        <time>2019-08-30T08:57:40Z</time>
      </trkpt>
      <trkpt lat="43.16946" lon="6.47922">
        <ele>297.594452</ele>
        <time>2019-08-30T08:57:50Z</time>
      </trkpt>
      <trkpt lat="43.16897" lon="6.47932">
        <ele>298.406525</ele>
        <time>2019-08-30T08:57:59Z</time>
      </trkpt>
      <trkpt lat="43.16851" lon="6.47936">
        <ele>299.2005</ele>
        <time>2019-08-30T08:58:07Z</time>
      </trkpt>
      <trkpt lat="43.16805" lon="6.47956">
        <ele>296.457733</ele>
        <time>2019-08-30T08:58:16Z</time>
      </trkpt>
      <trkpt lat="43.16763" lon="6.47946">
        <ele>295.390259</ele>
        <time>2019-08-30T08:58:26Z</time>
      </trkpt>
      <trkpt lat="43.16777" lon="6.47876">
        <ele>295.794556</ele>
        <time>2019-08-30T08:58:34Z</time>
      </trkpt>
      <trkpt lat="43.16803" lon="6.47816">
        <ele>295.37796</ele>
        <time>2019-08-30T08:58:40Z</time>
      </trkpt>
      <trkpt lat="43.16815" lon="6.47753">
        <ele>290.018188</ele>
        <time>2019-08-30T08:58:46Z</time>
      </trkpt>
      <trkpt lat="43.16828" lon="6.47691">
        <ele>285.468018</ele>
        <time>2019-08-30T08:58:53Z</time>
      </trkpt>
      <trkpt lat="43.1685" lon="6.47629">
        <ele>281.649689</ele>
        <time>2019-08-30T08:58:59Z</time>
      </trkpt>
      <trkpt lat="43.1687" lon="6.47571">
        <ele>273.907074</ele>
        <time>2019-08-30T08:59:07Z</time>
      </trkpt>
      <trkpt lat="43.16891" lon="6.47514">
        <ele>267.664856</ele>
        <time>2019-08-30T08:59:17Z</time>
      </trkpt>
      <trkpt lat="43.16904" lon="6.47463">
        <ele>269.110901</ele>
        <time>2019-08-30T09:00:40Z</time>
      </trkpt>
      <trkpt lat="43.16941" lon="6.47427">
        <ele>267.735779</ele>
        <time>2019-08-30T09:01:01Z</time>
      </trkpt>
      <trkpt lat="43.16912" lon="6.47458">
        <ele>269.230072</ele>
        <time>2019-08-30T09:01:29Z</time>
      </trkpt>
      <trkpt lat="43.16889" lon="6.47506">
        <ele>267.54718</ele>
        <time>2019-08-30T09:01:44Z</time>
      </trkpt>
      <trkpt lat="43.16907" lon="6.47462">
        <ele>269.297699</ele>
        <time>2019-08-30T09:02:27Z</time>
      </trkpt>
      <trkpt lat="43.16944" lon="6.47421">
        <ele>268.455872</ele>
        <time>2019-08-30T09:02:45Z</time>
      </trkpt>
      <trkpt lat="43.16979" lon="6.47376">
        <ele>267.041077</ele>
        <time>2019-08-30T09:02:56Z</time>
      </trkpt>
      <trkpt lat="43.17008" lon="6.47323">
        <ele>267.802521</ele>
        <time>2019-08-30T09:03:05Z</time>
      </trkpt>
      <trkpt lat="43.17037" lon="6.47272">
        <ele>265.107513</ele>
        <time>2019-08-30T09:03:14Z</time>
      </trkpt>
      <trkpt lat="43.17051" lon="6.47213">
        <ele>265.35553</ele>
        <time>2019-08-30T09:03:24Z</time>
      </trkpt>
      <trkpt lat="43.17037" lon="6.47154">
        <ele>268.185211</ele>
        <time>2019-08-30T09:03:34Z</time>
      </trkpt>
      <trkpt lat="43.17017" lon="6.47096">
        <ele>268.669678</ele>
        <time>2019-08-30T09:03:44Z</time>
      </trkpt>
      <trkpt lat="43.16998" lon="6.47037">
        <ele>265.486237</ele>
        <time>2019-08-30T09:03:53Z</time>
      </trkpt>
      <trkpt lat="43.16991" lon="6.46972">
        <ele>264.024017</ele>
        <time>2019-08-30T09:04:02Z</time>
      </trkpt>
      <trkpt lat="43.17007" lon="6.46909">
        <ele>263.935852</ele>
        <time>2019-08-30T09:04:14Z</time>
      </trkpt>
      <trkpt lat="43.17026" lon="6.46851">
        <ele>265.360229</ele>
        <time>2019-08-30T09:04:28Z</time>
      </trkpt>
      <trkpt lat="43.17049" lon="6.46792">
        <ele>267.279999</ele>
        <time>2019-08-30T09:04:42Z</time>
      </trkpt>
      <trkpt lat="43.17072" lon="6.46739">
        <ele>272.901245</ele>
        <time>2019-08-30T09:04:56Z</time>
      </trkpt>
      <trkpt lat="43.17115" lon="6.46721">
        <ele>271.445099</ele>
        <time>2019-08-30T09:05:13Z</time>
      </trkpt>
      <trkpt lat="43.17159" lon="6.46712">
        <ele>270.755768</ele>
        <time>2019-08-30T09:05:28Z</time>
      </trkpt>
      <trkpt lat="43.17194" lon="6.46667">
        <ele>275.230896</ele>
        <time>2019-08-30T09:05:42Z</time>
      </trkpt>
      <trkpt lat="43.17218" lon="6.46611">
        <ele>276.435486</ele>
        <time>2019-08-30T09:05:58Z</time>
      </trkpt>
      <trkpt lat="43.17202" lon="6.46551">
        <ele>282.178375</ele>
        <time>2019-08-30T09:06:13Z</time>
      </trkpt>
      <trkpt lat="43.17169" lon="6.46507">
        <ele>287.370422</ele>
        <time>2019-08-30T09:06:30Z</time>
      </trkpt>
      <trkpt lat="43.17139" lon="6.46457">
        <ele>290.397095</ele>
        <time>2019-08-30T09:06:47Z</time>
      </trkpt>
      <trkpt lat="43.17114" lon="6.46404">
        <ele>291.846344</ele>
        <time>2019-08-30T09:07:03Z</time>
      </trkpt>
      <trkpt lat="43.1709" lon="6.46349">
        <ele>296.562592</ele>
        <time>2019-08-30T09:07:20Z</time>
      </trkpt>
      <trkpt lat="43.17105" lon="6.46294">
        <ele>294.244995</ele>
        <time>2019-08-30T09:07:37Z</time>
      </trkpt>
      <trkpt lat="43.17133" lon="6.46244">
        <ele>296.325012</ele>
        <time>2019-08-30T09:07:55Z</time>
      </trkpt>
      <trkpt lat="43.17149" lon="6.46186">
        <ele>299.467499</ele>
        <time>2019-08-30T09:08:13Z</time>
      </trkpt>
      <trkpt lat="43.1717" lon="6.46136">
        <ele>303.768616</ele>
        <time>2019-08-30T09:08:31Z</time>
      </trkpt>
      <trkpt lat="43.17213" lon="6.46112">
        <ele>299.573151</ele>
        <time>2019-08-30T09:08:49Z</time>
      </trkpt>
      <trkpt lat="43.1725" lon="6.4607">
        <ele>303.110016</ele>
        <time>2019-08-30T09:09:06Z</time>
      </trkpt>
      <trkpt lat="43.17276" lon="6.46016">
        <ele>306.379852</ele>
        <time>2019-08-30T09:09:22Z</time>
      </trkpt>
      <trkpt lat="43.17285" lon="6.45952">
        <ele>312.478516</ele>
        <time>2019-08-30T09:09:40Z</time>
      </trkpt>
      <trkpt lat="43.17306" lon="6.45896">
        <ele>317.298798</ele>
        <time>2019-08-30T09:09:58Z</time>
      </trkpt>
      <trkpt lat="43.17349" lon="6.45878">
        <ele>316.81543</ele>
        <time>2019-08-30T09:10:15Z</time>
      </trkpt>
      <trkpt lat="43.17393" lon="6.45879">
        <ele>322.401245</ele>
        <time>2019-08-30T09:10:31Z</time>
      </trkpt>
      <trkpt lat="43.17427" lon="6.45921">
        <ele>321.84436</ele>
        <time>2019-08-30T09:10:50Z</time>
      </trkpt>
      <trkpt lat="43.17457" lon="6.45971">
        <ele>321.35376</ele>
        <time>2019-08-30T09:11:07Z</time>
      </trkpt>
      <trkpt lat="43.17495" lon="6.46009">
        <ele>323.790009</ele>
        <time>2019-08-30T09:11:24Z</time>
      </trkpt>
      <trkpt lat="43.1753" lon="6.46049">
        <ele>329.549896</ele>
        <time>2019-08-30T09:11:41Z</time>
      </trkpt>
      <trkpt lat="43.17562" lon="6.46097">
        <ele>329.820557</ele>
        <time>2019-08-30T09:11:58Z</time>
      </trkpt>
      <trkpt lat="43.17599" lon="6.46137">
        <ele>329.643127</ele>
        <time>2019-08-30T09:12:15Z</time>
      </trkpt>
      <trkpt lat="43.17637" lon="6.46167">
        <ele>329.622253</ele>
        <time>2019-08-30T09:12:32Z</time>
      </trkpt>
      <trkpt lat="43.17684" lon="6.46163">
        <ele>331.411377</ele>
        <time>2019-08-30T09:12:49Z</time>
      </trkpt>
      <trkpt lat="43.17727" lon="6.4614">
        <ele>332.739502</ele>
        <time>2019-08-30T09:13:05Z</time>
      </trkpt>
      <trkpt lat="43.1777" lon="6.46113">
        <ele>334.013397</ele>
        <time>2019-08-30T09:13:24Z</time>
      </trkpt>
      <trkpt lat="43.17812" lon="6.46084">
        <ele>335.209778</ele>
        <time>2019-08-30T09:13:42Z</time>
      </trkpt>
      <trkpt lat="43.17848" lon="6.46046">
        <ele>340.129089</ele>
        <time>2019-08-30T09:14:02Z</time>
      </trkpt>
      <trkpt lat="43.17891" lon="6.46028">
        <ele>343.457336</ele>
        <time>2019-08-30T09:14:21Z</time>
      </trkpt>
      <trkpt lat="43.17938" lon="6.46019">
        <ele>340.82193</ele>
        <time>2019-08-30T09:19:50Z</time>
      </trkpt>
      <trkpt lat="43.17969" lon="6.45971">
        <ele>341.929962</ele>
        <time>2019-08-30T09:20:08Z</time>
      </trkpt>
      <trkpt lat="43.17942" lon="6.45919">
        <ele>356.581879</ele>
        <time>2019-08-30T09:20:28Z</time>
      </trkpt>
      <trkpt lat="43.17913" lon="6.45869">
        <ele>360.601257</ele>
        <time>2019-08-30T09:20:47Z</time>
      </trkpt>
      <trkpt lat="43.17889" lon="6.45812">
        <ele>362.421814</ele>
        <time>2019-08-30T09:21:06Z</time>
      </trkpt>
      <trkpt lat="43.17876" lon="6.45754">
        <ele>365.506256</ele>
        <time>2019-08-30T09:21:25Z</time>
      </trkpt>
      <trkpt lat="43.17882" lon="6.4569">
        <ele>363</ele>
        <time>2019-08-30T09:21:46Z</time>
      </trkpt>
      <trkpt lat="43.17865" lon="6.4563">
        <ele>369.071808</ele>
        <time>2019-08-30T09:22:07Z</time>
      </trkpt>
      <trkpt lat="43.17837" lon="6.45574">
        <ele>375.408539</ele>
        <time>2019-08-30T09:22:27Z</time>
      </trkpt>
      <trkpt lat="43.17822" lon="6.45511">
        <ele>378.160553</ele>
        <time>2019-08-30T09:22:47Z</time>
      </trkpt>
      <trkpt lat="43.1781" lon="6.45447">
        <ele>378.046906</ele>
        <time>2019-08-30T09:23:09Z</time>
      </trkpt>
      <trkpt lat="43.17783" lon="6.45391">
        <ele>384.593719</ele>
        <time>2019-08-30T09:23:31Z</time>
      </trkpt>
      <trkpt lat="43.17786" lon="6.45353">
        <ele>382.644501</ele>
        <time>2019-08-30T09:24:40Z</time>
      </trkpt>
      <trkpt lat="43.17787" lon="6.4528">
        <ele>384.424194</ele>
        <time>2019-08-30T09:25:03Z</time>
      </trkpt>
      <trkpt lat="43.17758" lon="6.4523">
        <ele>391.222198</ele>
        <time>2019-08-30T09:25:23Z</time>
      </trkpt>
      <trkpt lat="43.17722" lon="6.4519">
        <ele>394.201447</ele>
        <time>2019-08-30T09:25:42Z</time>
      </trkpt>
      <trkpt lat="43.17686" lon="6.45154">
        <ele>397.026978</ele>
        <time>2019-08-30T09:25:58Z</time>
      </trkpt>
      <trkpt lat="43.17673" lon="6.45092">
        <ele>396.649261</ele>
        <time>2019-08-30T09:26:16Z</time>
      </trkpt>
      <trkpt lat="43.17695" lon="6.45039">
        <ele>393.591766</ele>
        <time>2019-08-30T09:26:35Z</time>
      </trkpt>
      <trkpt lat="43.17687" lon="6.44982">
        <ele>400.800049</ele>
        <time>2019-08-30T09:26:57Z</time>
      </trkpt>
      <trkpt lat="43.17682" lon="6.44929">
        <ele>403.986664</ele>
        <time>2019-08-30T09:27:17Z</time>
      </trkpt>
      <trkpt lat="43.17702" lon="6.4488">
        <ele>401.615112</ele>
        <time>2019-08-30T09:27:34Z</time>
      </trkpt>
      <trkpt lat="43.17693" lon="6.44819">
        <ele>407.170197</ele>
        <time>2019-08-30T09:27:52Z</time>
      </trkpt>
      <trkpt lat="43.17715" lon="6.44763">
        <ele>409.150574</ele>
        <time>2019-08-30T09:28:12Z</time>
      </trkpt>
      <trkpt lat="43.17736" lon="6.44707">
        <ele>410.665588</ele>
        <time>2019-08-30T09:28:31Z</time>
      </trkpt>
      <trkpt lat="43.17753" lon="6.44649">
        <ele>409.512604</ele>
        <time>2019-08-30T09:28:52Z</time>
      </trkpt>
      <trkpt lat="43.17736" lon="6.44643">
        <ele>412.404663</ele>
        <time>2019-08-30T09:30:01Z</time>
      </trkpt>
      <trkpt lat="43.1774" lon="6.44611">
        <ele>411.770233</ele>
        <time>2019-08-30T09:30:20Z</time>
      </trkpt>
      <trkpt lat="43.17705" lon="6.4465">
        <ele>414.653778</ele>
        <time>2019-08-30T09:30:34Z</time>
      </trkpt>
      <trkpt lat="43.17658" lon="6.44661">
        <ele>418.665741</ele>
        <time>2019-08-30T09:30:44Z</time>
      </trkpt>
      <trkpt lat="43.17619" lon="6.44623">
        <ele>412.3125</ele>
        <time>2019-08-30T09:30:52Z</time>
      </trkpt>
      <trkpt lat="43.17567" lon="6.44617">
        <ele>412.934998</ele>
        <time>2019-08-30T09:31:00Z</time>
      </trkpt>
      <trkpt lat="43.17523" lon="6.446">
        <ele>408.137451</ele>
        <time>2019-08-30T09:31:06Z</time>
      </trkpt>
      <trkpt lat="43.17475" lon="6.44614">
        <ele>405.0867</ele>
        <time>2019-08-30T09:31:14Z</time>
      </trkpt>
      <trkpt lat="43.17431" lon="6.44632">
        <ele>402.316986</ele>
        <time>2019-08-30T09:31:20Z</time>
      </trkpt>
      <trkpt lat="43.17377" lon="6.44619">
        <ele>395.604309</ele>
        <time>2019-08-30T09:31:26Z</time>
      </trkpt>
      <trkpt lat="43.17336" lon="6.44588">
        <ele>391.522186</ele>
        <time>2019-08-30T09:31:32Z</time>
      </trkpt>
      <trkpt lat="43.173" lon="6.44549">
        <ele>394.3461</ele>
        <time>2019-08-30T09:31:42Z</time>
      </trkpt>
      <trkpt lat="43.17267" lon="6.44507">
        <ele>398.25</ele>
        <time>2019-08-30T09:31:56Z</time>
      </trkpt>
      <trkpt lat="43.17227" lon="6.44479">
        <ele>400.093597</ele>
        <time>2019-08-30T09:32:12Z</time>
      </trkpt>
      <trkpt lat="43.17185" lon="6.44451">
        <ele>401.817902</ele>
        <time>2019-08-30T09:32:30Z</time>
      </trkpt>
      <trkpt lat="43.17147" lon="6.44414">
        <ele>404.190125</ele>
        <time>2019-08-30T09:32:46Z</time>
      </trkpt>
      <trkpt lat="43.17113" lon="6.44367">
        <ele>405.798737</ele>
        <time>2019-08-30T09:33:02Z</time>
      </trkpt>
      <trkpt lat="43.17082" lon="6.44319">
        <ele>406.728546</ele>
        <time>2019-08-30T09:33:17Z</time>
      </trkpt>
      <trkpt lat="43.17058" lon="6.44262">
        <ele>409.975098</ele>
        <time>2019-08-30T09:33:32Z</time>
      </trkpt>
      <trkpt lat="43.17027" lon="6.44213">
        <ele>411.565521</ele>
        <time>2019-08-30T09:33:46Z</time>
      </trkpt>
      <trkpt lat="43.16994" lon="6.44168">
        <ele>413.341248</ele>
        <time>2019-08-30T09:34:00Z</time>
      </trkpt>
      <trkpt lat="43.16962" lon="6.44122">
        <ele>412.487854</ele>
        <time>2019-08-30T09:34:15Z</time>
      </trkpt>
      <trkpt lat="43.16941" lon="6.44065">
        <ele>416.868805</ele>
        <time>2019-08-30T09:34:30Z</time>
      </trkpt>
      <trkpt lat="43.16941" lon="6.44001">
        <ele>421.230133</ele>
        <time>2019-08-30T09:34:45Z</time>
      </trkpt>
      <trkpt lat="43.16951" lon="6.43936">
        <ele>422.846497</ele>
        <time>2019-08-30T09:34:59Z</time>
      </trkpt>
      <trkpt lat="43.16964" lon="6.43876">
        <ele>422.515961</ele>
        <time>2019-08-30T09:35:12Z</time>
      </trkpt>
      <trkpt lat="43.16977" lon="6.43814">
        <ele>423.675842</ele>
        <time>2019-08-30T09:35:26Z</time>
      </trkpt>
      <trkpt lat="43.16986" lon="6.43751">
        <ele>424.567322</ele>
        <time>2019-08-30T09:35:40Z</time>
      </trkpt>
      <trkpt lat="43.17019" lon="6.43704">
        <ele>426.827728</ele>
        <time>2019-08-30T09:35:54Z</time>
      </trkpt>
      <trkpt lat="43.17059" lon="6.43676">
        <ele>426.871094</ele>
        <time>2019-08-30T09:36:09Z</time>
      </trkpt>
      <trkpt lat="43.171" lon="6.43653">
        <ele>430.475677</ele>
        <time>2019-08-30T09:36:22Z</time>
      </trkpt>
      <trkpt lat="43.17128" lon="6.43603">
        <ele>427.885406</ele>
        <time>2019-08-30T09:36:35Z</time>
      </trkpt>
      <trkpt lat="43.17172" lon="6.43584">
        <ele>431.798279</ele>
        <time>2019-08-30T09:36:49Z</time>
      </trkpt>
      <trkpt lat="43.17214" lon="6.43559">
        <ele>435.092102</ele>
        <time>2019-08-30T09:37:05Z</time>
      </trkpt>
      <trkpt lat="43.17245" lon="6.43512">
        <ele>434.262451</ele>
        <time>2019-08-30T09:37:21Z</time>
      </trkpt>
      <trkpt lat="43.17287" lon="6.43484">
        <ele>437.870117</ele>
        <time>2019-08-30T09:37:36Z</time>
      </trkpt>
      <trkpt lat="43.17326" lon="6.43448">
        <ele>440.502899</ele>
        <time>2019-08-30T09:37:51Z</time>
      </trkpt>
      <trkpt lat="43.17355" lon="6.43399">
        <ele>441.27121</ele>
        <time>2019-08-30T09:38:07Z</time>
      </trkpt>
      <trkpt lat="43.17386" lon="6.43351">
        <ele>443.418793</ele>
        <time>2019-08-30T09:38:24Z</time>
      </trkpt>
      <trkpt lat="43.17405" lon="6.43299">
        <ele>444.30249</ele>
        <time>2019-08-30T09:38:42Z</time>
      </trkpt>
      <trkpt lat="43.17436" lon="6.43249">
        <ele>449.593323</ele>
        <time>2019-08-30T09:39:05Z</time>
      </trkpt>
      <trkpt lat="43.17458" lon="6.43196">
        <ele>453.554108</ele>
        <time>2019-08-30T09:39:33Z</time>
      </trkpt>
      <trkpt lat="43.17459" lon="6.43134">
        <ele>458.059998</ele>
        <time>2019-08-30T09:40:07Z</time>
      </trkpt>
      <trkpt lat="43.17436" lon="6.43079">
        <ele>459.63678</ele>
        <time>2019-08-30T09:40:35Z</time>
      </trkpt>
      <trkpt lat="43.17414" lon="6.4302">
        <ele>458.276398</ele>
        <time>2019-08-30T09:40:48Z</time>
      </trkpt>
      <trkpt lat="43.17399" lon="6.42957">
        <ele>456.765076</ele>
        <time>2019-08-30T09:41:00Z</time>
      </trkpt>
      <trkpt lat="43.17377" lon="6.42904">
        <ele>454.417511</ele>
        <time>2019-08-30T09:41:12Z</time>
      </trkpt>
      <trkpt lat="43.17374" lon="6.4284">
        <ele>452.141388</ele>
        <time>2019-08-30T09:41:24Z</time>
      </trkpt>
      <trkpt lat="43.1737" lon="6.42774">
        <ele>450.782501</ele>
        <time>2019-08-30T09:41:41Z</time>
      </trkpt>
      <trkpt lat="43.17377" lon="6.42713">
        <ele>448.148163</ele>
        <time>2019-08-30T09:41:54Z</time>
      </trkpt>
      <trkpt lat="43.17359" lon="6.42647">
        <ele>446.440338</ele>
        <time>2019-08-30T09:42:04Z</time>
      </trkpt>
      <trkpt lat="43.17334" lon="6.42588">
        <ele>445.093994</ele>
        <time>2019-08-30T09:42:12Z</time>
      </trkpt>
      <trkpt lat="43.1735" lon="6.42534">
        <ele>445.392151</ele>
        <time>2019-08-30T09:42:27Z</time>
      </trkpt>
      <trkpt lat="43.17372" lon="6.42482">
        <ele>446.560486</ele>
        <time>2019-08-30T09:42:48Z</time>
      </trkpt>
      <trkpt lat="43.17377" lon="6.42422">
        <ele>445.513794</ele>
        <time>2019-08-30T09:43:08Z</time>
      </trkpt>
      <trkpt lat="43.17391" lon="6.42362">
        <ele>443.934998</ele>
        <time>2019-08-30T09:43:25Z</time>
      </trkpt>
      <trkpt lat="43.17382" lon="6.42302">
        <ele>443.514008</ele>
        <time>2019-08-30T09:43:37Z</time>
      </trkpt>
      <trkpt lat="43.17389" lon="6.42242">
        <ele>442.732697</ele>
        <time>2019-08-30T09:43:50Z</time>
      </trkpt>
      <trkpt lat="43.17391" lon="6.42179">
        <ele>442.63501</ele>
        <time>2019-08-30T09:44:01Z</time>
      </trkpt>
      <trkpt lat="43.17398" lon="6.42114">
        <ele>442.005005</ele>
        <time>2019-08-30T09:44:12Z</time>
      </trkpt>
      <trkpt lat="43.17421" lon="6.42055">
        <ele>440.316559</ele>
        <time>2019-08-30T09:44:21Z</time>
      </trkpt>
      <trkpt lat="43.1744" lon="6.41995">
        <ele>438.389587</ele>
        <time>2019-08-30T09:44:30Z</time>
      </trkpt>
      <trkpt lat="43.17449" lon="6.41932">
        <ele>434.143768</ele>
        <time>2019-08-30T09:44:43Z</time>
      </trkpt>
      <trkpt lat="43.17462" lon="6.41873">
        <ele>429.179993</ele>
        <time>2019-08-30T09:44:54Z</time>
      </trkpt>
      <trkpt lat="43.17504" lon="6.41846">
        <ele>425.11969</ele>
        <time>2019-08-30T09:45:05Z</time>
      </trkpt>
      <trkpt lat="43.175" lon="6.4179">
        <ele>422.623596</ele>
        <time>2019-08-30T09:45:18Z</time>
      </trkpt>
      <trkpt lat="43.17494" lon="6.41727">
        <ele>414.291992</ele>
        <time>2019-08-30T09:45:31Z</time>
      </trkpt>
      <trkpt lat="43.17479" lon="6.41665">
        <ele>409.231415</ele>
        <time>2019-08-30T09:45:43Z</time>
      </trkpt>
      <trkpt lat="43.17454" lon="6.41603">
        <ele>405.195343</ele>
        <time>2019-08-30T09:45:54Z</time>
      </trkpt>
      <trkpt lat="43.17428" lon="6.41548">
        <ele>399.986115</ele>
        <time>2019-08-30T09:46:02Z</time>
      </trkpt>
      <trkpt lat="43.17419" lon="6.41485">
        <ele>394.402588</ele>
        <time>2019-08-30T09:46:13Z</time>
      </trkpt>
      <trkpt lat="43.17413" lon="6.41424">
        <ele>389.682068</ele>
        <time>2019-08-30T09:46:27Z</time>
      </trkpt>
      <trkpt lat="43.17395" lon="6.41364">
        <ele>385.686493</ele>
        <time>2019-08-30T09:46:36Z</time>
      </trkpt>
      <trkpt lat="43.17394" lon="6.41304">
        <ele>383.806976</ele>
        <time>2019-08-30T09:46:48Z</time>
      </trkpt>
      <trkpt lat="43.17385" lon="6.41247">
        <ele>381.707458</ele>
        <time>2019-08-30T09:47:03Z</time>
      </trkpt>
      <trkpt lat="43.17375" lon="6.41185">
        <ele>379.478668</ele>
        <time>2019-08-30T09:47:18Z</time>
      </trkpt>
      <trkpt lat="43.17377" lon="6.41131">
        <ele>378.342041</ele>
        <time>2019-08-30T09:47:41Z</time>
      </trkpt>
      <trkpt lat="43.17369" lon="6.41112">
        <ele>378.149689</ele>
        <time>2019-08-30T09:53:59Z</time>
      </trkpt>
      <trkpt lat="43.17346" lon="6.41053">
        <ele>377.907501</ele>
        <time>2019-08-30T09:54:22Z</time>
      </trkpt>
      <trkpt lat="43.17324" lon="6.40997">
        <ele>377.586853</ele>
        <time>2019-08-30T09:54:35Z</time>
      </trkpt>
      <trkpt lat="43.17301" lon="6.40937">
        <ele>377.245575</ele>
        <time>2019-08-30T09:54:47Z</time>
      </trkpt>
      <trkpt lat="43.17281" lon="6.40882">
        <ele>375.962494</ele>
        <time>2019-08-30T09:54:57Z</time>
      </trkpt>
      <trkpt lat="43.17257" lon="6.40825">
        <ele>375.55072</ele>
        <time>2019-08-30T09:55:07Z</time>
      </trkpt>
      <trkpt lat="43.1723" lon="6.40774">
        <ele>376.3125</ele>
        <time>2019-08-30T09:55:17Z</time>
      </trkpt>
      <trkpt lat="43.172" lon="6.40725">
        <ele>378.055176</ele>
        <time>2019-08-30T09:55:27Z</time>
      </trkpt>
      <trkpt lat="43.17154" lon="6.40746">
        <ele>371.62854</ele>
        <time>2019-08-30T09:55:37Z</time>
      </trkpt>
      <trkpt lat="43.1711" lon="6.40779">
        <ele>372.005707</ele>
        <time>2019-08-30T09:55:47Z</time>
      </trkpt>
      <trkpt lat="43.17066" lon="6.40793">
        <ele>371.839996</ele>
        <time>2019-08-30T09:55:59Z</time>
      </trkpt>
      <trkpt lat="43.17021" lon="6.40773">
        <ele>375.090302</ele>
        <time>2019-08-30T09:56:12Z</time>
      </trkpt>
      <trkpt lat="43.16975" lon="6.40751">
        <ele>374.288635</ele>
        <time>2019-08-30T09:56:23Z</time>
      </trkpt>
      <trkpt lat="43.16931" lon="6.40725">
        <ele>375.438904</ele>
        <time>2019-08-30T09:56:34Z</time>
      </trkpt>
      <trkpt lat="43.16901" lon="6.40683">
        <ele>378.680908</ele>
        <time>2019-08-30T09:56:45Z</time>
      </trkpt>
      <trkpt lat="43.16901" lon="6.40617">
        <ele>382.619995</ele>
        <time>2019-08-30T09:56:57Z</time>
      </trkpt>
      <trkpt lat="43.16876" lon="6.40564">
        <ele>381.021423</ele>
        <time>2019-08-30T09:57:08Z</time>
      </trkpt>
      <trkpt lat="43.16861" lon="6.40501">
        <ele>379.925964</ele>
        <time>2019-08-30T09:57:20Z</time>
      </trkpt>
      <trkpt lat="43.16861" lon="6.40438">
        <ele>380.440002</ele>
        <time>2019-08-30T09:57:32Z</time>
      </trkpt>
      <trkpt lat="43.16879" lon="6.40379">
        <ele>383.649994</ele>
        <time>2019-08-30T09:57:45Z</time>
      </trkpt>
      <trkpt lat="43.1688" lon="6.40317">
        <ele>384.39444</ele>
        <time>2019-08-30T09:57:57Z</time>
      </trkpt>
      <trkpt lat="43.16863" lon="6.4026">
        <ele>384.849152</ele>
        <time>2019-08-30T09:58:08Z</time>
      </trkpt>
      <trkpt lat="43.16825" lon="6.40209">
        <ele>383.564758</ele>
        <time>2019-08-30T09:58:22Z</time>
      </trkpt>
      <trkpt lat="43.1679" lon="6.40163">
        <ele>386.023071</ele>
        <time>2019-08-30T09:58:36Z</time>
      </trkpt>
      <trkpt lat="43.16755" lon="6.40118">
        <ele>386.755005</ele>
        <time>2019-08-30T09:58:49Z</time>
      </trkpt>
      <trkpt lat="43.16721" lon="6.40069">
        <ele>387.802582</ele>
        <time>2019-08-30T09:59:02Z</time>
      </trkpt>
      <trkpt lat="43.16687" lon="6.40026">
        <ele>389.634979</ele>
        <time>2019-08-30T09:59:15Z</time>
      </trkpt>
      <trkpt lat="43.16647" lon="6.40001">
        <ele>390.410004</ele>
        <time>2019-08-30T09:59:28Z</time>
      </trkpt>
      <trkpt lat="43.16604" lon="6.39971">
        <ele>391.585693</ele>
        <time>2019-08-30T09:59:43Z</time>
      </trkpt>
      <trkpt lat="43.16569" lon="6.3993">
        <ele>391.882263</ele>
        <time>2019-08-30T09:59:57Z</time>
      </trkpt>
      <trkpt lat="43.16554" lon="6.39866">
        <ele>395.98999</ele>
        <time>2019-08-30T10:00:10Z</time>
      </trkpt>
      <trkpt lat="43.16537" lon="6.39806">
        <ele>397.500977</ele>
        <time>2019-08-30T10:00:22Z</time>
      </trkpt>
      <trkpt lat="43.1653" lon="6.39744">
        <ele>399.819672</ele>
        <time>2019-08-30T10:00:36Z</time>
      </trkpt>
      <trkpt lat="43.16526" lon="6.39679">
        <ele>401.920959</ele>
        <time>2019-08-30T10:00:51Z</time>
      </trkpt>
      <trkpt lat="43.16535" lon="6.39619">
        <ele>402.027527</ele>
        <time>2019-08-30T10:01:05Z</time>
      </trkpt>
      <trkpt lat="43.16513" lon="6.39574">
        <ele>403.874146</ele>
        <time>2019-08-30T10:01:20Z</time>
      </trkpt>
      <trkpt lat="43.1647" lon="6.39557">
        <ele>402.730011</ele>
        <time>2019-08-30T10:01:37Z</time>
      </trkpt>
      <trkpt lat="43.16453" lon="6.39498">
        <ele>405.099213</ele>
        <time>2019-08-30T10:01:55Z</time>
      </trkpt>
      <trkpt lat="43.16457" lon="6.39436">
        <ele>410.444153</ele>
        <time>2019-08-30T10:02:12Z</time>
      </trkpt>
      <trkpt lat="43.1643" lon="6.39384">
        <ele>410.948273</ele>
        <time>2019-08-30T10:02:32Z</time>
      </trkpt>
      <trkpt lat="43.1641" lon="6.39327">
        <ele>412.530212</ele>
        <time>2019-08-30T10:02:49Z</time>
      </trkpt>
      <trkpt lat="43.1639" lon="6.39269">
        <ele>414.130005</ele>
        <time>2019-08-30T10:03:05Z</time>
      </trkpt>
      <trkpt lat="43.16371" lon="6.39214">
        <ele>417.705322</ele>
        <time>2019-08-30T10:03:19Z</time>
      </trkpt>
      <trkpt lat="43.16325" lon="6.39199">
        <ele>414.904968</ele>
        <time>2019-08-30T10:03:33Z</time>
      </trkpt>
      <trkpt lat="43.16287" lon="6.39162">
        <ele>416.749298</ele>
        <time>2019-08-30T10:03:47Z</time>
      </trkpt>
      <trkpt lat="43.16263" lon="6.39106">
        <ele>419.63385</ele>
        <time>2019-08-30T10:04:01Z</time>
      </trkpt>
      <trkpt lat="43.16237" lon="6.39054">
        <ele>422.194427</ele>
        <time>2019-08-30T10:04:15Z</time>
      </trkpt>
      <trkpt lat="43.16201" lon="6.39014">
        <ele>423.471741</ele>
        <time>2019-08-30T10:04:29Z</time>
      </trkpt>
      <trkpt lat="43.1617" lon="6.38965">
        <ele>425.68338</ele>
        <time>2019-08-30T10:04:44Z</time>
      </trkpt>
      <trkpt lat="43.1615" lon="6.38908">
        <ele>427.156525</ele>
        <time>2019-08-30T10:04:57Z</time>
      </trkpt>
      <trkpt lat="43.16133" lon="6.38847">
        <ele>426.648865</ele>
        <time>2019-08-30T10:05:12Z</time>
      </trkpt>
      <trkpt lat="43.16115" lon="6.38788">
        <ele>427.9534</ele>
        <time>2019-08-30T10:05:25Z</time>
      </trkpt>
      <trkpt lat="43.16106" lon="6.38724">
        <ele>430.315399</ele>
        <time>2019-08-30T10:05:38Z</time>
      </trkpt>
      <trkpt lat="43.16099" lon="6.38664">
        <ele>431.025635</ele>
        <time>2019-08-30T10:05:52Z</time>
      </trkpt>
      <trkpt lat="43.16097" lon="6.38601">
        <ele>431.160706</ele>
        <time>2019-08-30T10:06:07Z</time>
      </trkpt>
      <trkpt lat="43.16124" lon="6.38547">
        <ele>431.945679</ele>
        <time>2019-08-30T10:06:20Z</time>
      </trkpt>
      <trkpt lat="43.16157" lon="6.38513">
        <ele>429.419403</ele>
        <time>2019-08-30T10:06:32Z</time>
      </trkpt>
      <trkpt lat="43.16205" lon="6.3853">
        <ele>428.911072</ele>
        <time>2019-08-30T10:06:43Z</time>
      </trkpt>
      <trkpt lat="43.16254" lon="6.38541">
        <ele>428.857727</ele>
        <time>2019-08-30T10:06:53Z</time>
      </trkpt>
      <trkpt lat="43.16301" lon="6.38548">
        <ele>430.19281</ele>
        <time>2019-08-30T10:07:03Z</time>
      </trkpt>
      <trkpt lat="43.16349" lon="6.38533">
        <ele>431.842438</ele>
        <time>2019-08-30T10:07:13Z</time>
      </trkpt>
      <trkpt lat="43.16365" lon="6.38473">
        <ele>433.386871</ele>
        <time>2019-08-30T10:07:23Z</time>
      </trkpt>
      <trkpt lat="43.16339" lon="6.38423">
        <ele>431.652496</ele>
        <time>2019-08-30T10:07:33Z</time>
      </trkpt>
      <trkpt lat="43.16301" lon="6.38387">
        <ele>429.263458</ele>
        <time>2019-08-30T10:08:47Z</time>
      </trkpt>
      <trkpt lat="43.16302" lon="6.38319">
        <ele>429.059143</ele>
        <time>2019-08-30T10:08:57Z</time>
      </trkpt>
      <trkpt lat="43.16327" lon="6.38259">
        <ele>428.655762</ele>
        <time>2019-08-30T10:09:05Z</time>
      </trkpt>
      <trkpt lat="43.16324" lon="6.38195">
        <ele>429.388367</ele>
        <time>2019-08-30T10:09:12Z</time>
      </trkpt>
      <trkpt lat="43.16307" lon="6.38136">
        <ele>427.379608</ele>
        <time>2019-08-30T10:09:19Z</time>
      </trkpt>
      <trkpt lat="43.16286" lon="6.3808">
        <ele>423.914001</ele>
        <time>2019-08-30T10:09:26Z</time>
      </trkpt>
      <trkpt lat="43.16264" lon="6.38024">
        <ele>421.745636</ele>
        <time>2019-08-30T10:09:33Z</time>
      </trkpt>
      <trkpt lat="43.16242" lon="6.37966">
        <ele>420.184998</ele>
        <time>2019-08-30T10:09:40Z</time>
      </trkpt>
      <trkpt lat="43.16221" lon="6.37906">
        <ele>417.065002</ele>
        <time>2019-08-30T10:09:47Z</time>
      </trkpt>
      <trkpt lat="43.16215" lon="6.37844">
        <ele>416.782257</ele>
        <time>2019-08-30T10:09:54Z</time>
      </trkpt>
      <trkpt lat="43.16187" lon="6.37793">
        <ele>415.01001</ele>
        <time>2019-08-30T10:10:02Z</time>
      </trkpt>
      <trkpt lat="43.16151" lon="6.37751">
        <ele>414.861084</ele>
        <time>2019-08-30T10:10:11Z</time>
      </trkpt>
      <trkpt lat="43.16111" lon="6.3771">
        <ele>415.648743</ele>
        <time>2019-08-30T10:10:19Z</time>
      </trkpt>
      <trkpt lat="43.16072" lon="6.37679">
        <ele>416.112396</ele>
        <time>2019-08-30T10:10:26Z</time>
      </trkpt>
      <trkpt lat="43.16028" lon="6.37652">
        <ele>415.890137</ele>
        <time>2019-08-30T10:10:34Z</time>
      </trkpt>
      <trkpt lat="43.15984" lon="6.37621">
        <ele>412.731995</ele>
        <time>2019-08-30T10:10:43Z</time>
      </trkpt>
      <trkpt lat="43.15942" lon="6.37599">
        <ele>409.717865</ele>
        <time>2019-08-30T10:10:51Z</time>
      </trkpt>
      <trkpt lat="43.15916" lon="6.37552">
        <ele>408.289764</ele>
        <time>2019-08-30T10:10:59Z</time>
      </trkpt>
      <trkpt lat="43.15936" lon="6.37486">
        <ele>411.563293</ele>
        <time>2019-08-30T10:11:07Z</time>
      </trkpt>
      <trkpt lat="43.15934" lon="6.37422">
        <ele>412.22876</ele>
        <time>2019-08-30T10:11:15Z</time>
      </trkpt>
      <trkpt lat="43.15888" lon="6.37428">
        <ele>408.967407</ele>
        <time>2019-08-30T10:11:24Z</time>
      </trkpt>
      <trkpt lat="43.15843" lon="6.37454">
        <ele>405.867554</ele>
        <time>2019-08-30T10:11:32Z</time>
      </trkpt>
      <trkpt lat="43.158" lon="6.37481">
        <ele>402.732513</ele>
        <time>2019-08-30T10:11:41Z</time>
      </trkpt>
      <trkpt lat="43.15754" lon="6.375">
        <ele>399.19751</ele>
        <time>2019-08-30T10:11:52Z</time>
      </trkpt>
      <trkpt lat="43.15723" lon="6.37454">
        <ele>403.38797</ele>
        <time>2019-08-30T10:12:04Z</time>
      </trkpt>
      <trkpt lat="43.15712" lon="6.37392">
        <ele>406.209595</ele>
        <time>2019-08-30T10:12:15Z</time>
      </trkpt>
      <trkpt lat="43.15704" lon="6.37349">
        <ele>405.528931</ele>
        <time>2019-08-30T10:13:00Z</time>
      </trkpt>
      <trkpt lat="43.15703" lon="6.37381">
        <ele>404.811371</ele>
        <time>2019-08-30T10:14:10Z</time>
      </trkpt>
      <trkpt lat="43.15694" lon="6.37324">
        <ele>403.28949</ele>
        <time>2019-08-30T10:14:31Z</time>
      </trkpt>
      <trkpt lat="43.15676" lon="6.37262">
        <ele>399.620911</ele>
        <time>2019-08-30T10:14:40Z</time>
      </trkpt>
      <trkpt lat="43.15642" lon="6.37228">
        <ele>395.574677</ele>
        <time>2019-08-30T10:14:50Z</time>
      </trkpt>
      <trkpt lat="43.15599" lon="6.37265">
        <ele>389.589996</ele>
        <time>2019-08-30T10:15:03Z</time>
      </trkpt>
      <trkpt lat="43.15575" lon="6.37322">
        <ele>384.600494</ele>
        <time>2019-08-30T10:15:13Z</time>
      </trkpt>
      <trkpt lat="43.15541" lon="6.3729">
        <ele>381.288605</ele>
        <time>2019-08-30T10:15:29Z</time>
      </trkpt>
      <trkpt lat="43.15523" lon="6.3723">
        <ele>376.102051</ele>
        <time>2019-08-30T10:15:40Z</time>
      </trkpt>
      <trkpt lat="43.15536" lon="6.37173">
        <ele>373.328339</ele>
        <time>2019-08-30T10:16:59Z</time>
      </trkpt>
      <trkpt lat="43.15556" lon="6.37114">
        <ele>368.717041</ele>
        <time>2019-08-30T10:17:07Z</time>
      </trkpt>
      <trkpt lat="43.15581" lon="6.37058">
        <ele>365.87085</ele>
        <time>2019-08-30T10:17:42Z</time>
      </trkpt>
      <trkpt lat="43.15553" lon="6.37087">
        <ele>362.547333</ele>
        <time>2019-08-30T10:17:57Z</time>
      </trkpt>
      <trkpt lat="43.15525" lon="6.37142">
        <ele>364.851837</ele>
        <time>2019-08-30T10:18:08Z</time>
      </trkpt>
      <trkpt lat="43.15482" lon="6.37164">
        <ele>355.970764</ele>
        <time>2019-08-30T10:18:19Z</time>
      </trkpt>
      <trkpt lat="43.15435" lon="6.37183">
        <ele>348.209991</ele>
        <time>2019-08-30T10:18:29Z</time>
      </trkpt>
      <trkpt lat="43.15396" lon="6.37213">
        <ele>343.581451</ele>
        <time>2019-08-30T10:18:40Z</time>
      </trkpt>
      <trkpt lat="43.1539" lon="6.37279">
        <ele>342.733246</ele>
        <time>2019-08-30T10:18:50Z</time>
      </trkpt>
      <trkpt lat="43.15386" lon="6.37341">
        <ele>338.681244</ele>
        <time>2019-08-30T10:18:57Z</time>
      </trkpt>
      <trkpt lat="43.15379" lon="6.37403">
        <ele>335.684235</ele>
        <time>2019-08-30T10:19:04Z</time>
      </trkpt>
      <trkpt lat="43.15352" lon="6.37449">
        <ele>328.121246</ele>
        <time>2019-08-30T10:19:18Z</time>
      </trkpt>
      <trkpt lat="43.15322" lon="6.37501">
        <ele>322.398743</ele>
        <time>2019-08-30T10:19:27Z</time>
      </trkpt>
      <trkpt lat="43.15295" lon="6.37551">
        <ele>315.860535</ele>
        <time>2019-08-30T10:19:35Z</time>
      </trkpt>
      <trkpt lat="43.15273" lon="6.37602">
        <ele>305.652191</ele>
        <time>2019-08-30T10:19:46Z</time>
      </trkpt>
      <trkpt lat="43.15282" lon="6.37539">
        <ele>308.380798</ele>
        <time>2019-08-30T10:19:57Z</time>
      </trkpt>
      <trkpt lat="43.15299" lon="6.37476">
        <ele>304.952759</ele>
        <time>2019-08-30T10:20:04Z</time>
      </trkpt>
      <trkpt lat="43.15304" lon="6.37407">
        <ele>298.303436</ele>
        <time>2019-08-30T10:20:13Z</time>
      </trkpt>
      <trkpt lat="43.15307" lon="6.37346">
        <ele>298.67691</ele>
        <time>2019-08-30T10:20:23Z</time>
      </trkpt>
      <trkpt lat="43.15278" lon="6.37291">
        <ele>290.876709</ele>
        <time>2019-08-30T10:20:33Z</time>
      </trkpt>
      <trkpt lat="43.15264" lon="6.37227">
        <ele>285.747101</ele>
        <time>2019-08-30T10:20:44Z</time>
      </trkpt>
      <trkpt lat="43.15266" lon="6.37159">
        <ele>281.724548</ele>
        <time>2019-08-30T10:20:54Z</time>
      </trkpt>
      <trkpt lat="43.15287" lon="6.37099">
        <ele>278.03714</ele>
        <time>2019-08-30T10:21:03Z</time>
      </trkpt>
      <trkpt lat="43.15324" lon="6.37052">
        <ele>274.646759</ele>
        <time>2019-08-30T10:21:10Z</time>
      </trkpt>
      <trkpt lat="43.15365" lon="6.37011">
        <ele>273.340424</ele>
        <time>2019-08-30T10:21:17Z</time>
      </trkpt>
      <trkpt lat="43.1536" lon="6.36999">
        <ele>267.76059</ele>
        <time>2019-08-30T10:21:31Z</time>
      </trkpt>
      <trkpt lat="43.15315" lon="6.37019">
        <ele>261.83075</ele>
        <time>2019-08-30T10:21:41Z</time>
      </trkpt>
      <trkpt lat="43.15269" lon="6.37038">
        <ele>255.765488</ele>
        <time>2019-08-30T10:21:50Z</time>
      </trkpt>
      <trkpt lat="43.15226" lon="6.37057">
        <ele>248.970963</ele>
        <time>2019-08-30T10:22:01Z</time>
      </trkpt>
      <trkpt lat="43.15197" lon="6.37094">
        <ele>244.521942</ele>
        <time>2019-08-30T10:22:34Z</time>
      </trkpt>
      <trkpt lat="43.15196" lon="6.37161">
        <ele>245.915237</ele>
        <time>2019-08-30T10:22:41Z</time>
      </trkpt>
      <trkpt lat="43.15185" lon="6.37229">
        <ele>241.863968</ele>
        <time>2019-08-30T10:22:48Z</time>
      </trkpt>
      <trkpt lat="43.15166" lon="6.37289">
        <ele>232.795929</ele>
        <time>2019-08-30T10:22:57Z</time>
      </trkpt>
      <trkpt lat="43.1516" lon="6.37351">
        <ele>227.936371</ele>
        <time>2019-08-30T10:23:07Z</time>
      </trkpt>
      <trkpt lat="43.15138" lon="6.37332">
        <ele>219.684723</ele>
        <time>2019-08-30T10:23:30Z</time>
      </trkpt>
      <trkpt lat="43.1513" lon="6.37265">
        <ele>215.086639</ele>
        <time>2019-08-30T10:23:48Z</time>
      </trkpt>
      <trkpt lat="43.15136" lon="6.37196">
        <ele>211.029694</ele>
        <time>2019-08-30T10:23:55Z</time>
      </trkpt>
      <trkpt lat="43.15131" lon="6.37133">
        <ele>209.625381</ele>
        <time>2019-08-30T10:24:01Z</time>
      </trkpt>
      <trkpt lat="43.15115" lon="6.37072">
        <ele>204.735672</ele>
        <time>2019-08-30T10:24:08Z</time>
      </trkpt>
      <trkpt lat="43.15089" lon="6.37016">
        <ele>195.300049</ele>
        <time>2019-08-30T10:24:17Z</time>
      </trkpt>
      <trkpt lat="43.15078" lon="6.36955">
        <ele>188.072006</ele>
        <time>2019-08-30T10:24:25Z</time>
      </trkpt>
      <trkpt lat="43.15101" lon="6.36911">
        <ele>194.91983</ele>
        <time>2019-08-30T10:24:36Z</time>
      </trkpt>
      <trkpt lat="43.15055" lon="6.36915">
        <ele>186.605133</ele>
        <time>2019-08-30T10:24:45Z</time>
      </trkpt>
      <trkpt lat="43.15007" lon="6.36937">
        <ele>180.816696</ele>
        <time>2019-08-30T10:24:52Z</time>
      </trkpt>
      <trkpt lat="43.14966" lon="6.36974">
        <ele>175.65889</ele>
        <time>2019-08-30T10:24:59Z</time>
      </trkpt>
      <trkpt lat="43.14918" lon="6.36997">
        <ele>171.85498</ele>
        <time>2019-08-30T10:25:08Z</time>
      </trkpt>
      <trkpt lat="43.14871" lon="6.37">
        <ele>168.779007</ele>
        <time>2019-08-30T10:25:16Z</time>
      </trkpt>
      <trkpt lat="43.14829" lon="6.36969">
        <ele>164.356766</ele>
        <time>2019-08-30T10:25:24Z</time>
      </trkpt>
      <trkpt lat="43.14785" lon="6.36947">
        <ele>157.919998</ele>
        <time>2019-08-30T10:25:35Z</time>
      </trkpt>
      <trkpt lat="43.14748" lon="6.36909">
        <ele>151.232437</ele>
        <time>2019-08-30T10:25:43Z</time>
      </trkpt>
      <trkpt lat="43.14715" lon="6.36865">
        <ele>146.518814</ele>
        <time>2019-08-30T10:25:52Z</time>
      </trkpt>
      <trkpt lat="43.14693" lon="6.36809">
        <ele>144.191757</ele>
        <time>2019-08-30T10:26:03Z</time>
      </trkpt>
      <trkpt lat="43.14661" lon="6.36753">
        <ele>140.056885</ele>
        <time>2019-08-30T10:26:10Z</time>
      </trkpt>
      <trkpt lat="43.14618" lon="6.36734">
        <ele>136.271011</ele>
        <time>2019-08-30T10:26:18Z</time>
      </trkpt>
      <trkpt lat="43.14571" lon="6.36736">
        <ele>134.203888</ele>
        <time>2019-08-30T10:26:25Z</time>
      </trkpt>
      <trkpt lat="43.14526" lon="6.36737">
        <ele>138.088562</ele>
        <time>2019-08-30T10:26:37Z</time>
      </trkpt>
      <trkpt lat="43.14513" lon="6.3672">
        <ele>139.570572</ele>
        <time>2019-08-30T10:26:58Z</time>
      </trkpt>
      <trkpt lat="43.14498" lon="6.36656">
        <ele>134.613129</ele>
        <time>2019-08-30T10:27:10Z</time>
      </trkpt>
      <trkpt lat="43.14488" lon="6.36595">
        <ele>125.096985</ele>
        <time>2019-08-30T10:27:19Z</time>
      </trkpt>
      <trkpt lat="43.14448" lon="6.36553">
        <ele>118.714577</ele>
        <time>2019-08-30T10:27:27Z</time>
      </trkpt>
      <trkpt lat="43.144" lon="6.36526">
        <ele>113.630753</ele>
        <time>2019-08-30T10:27:35Z</time>
      </trkpt>
      <trkpt lat="43.14354" lon="6.36549">
        <ele>111.52832</ele>
        <time>2019-08-30T10:27:42Z</time>
      </trkpt>
      <trkpt lat="43.1432" lon="6.36596">
        <ele>110.157433</ele>
        <time>2019-08-30T10:27:51Z</time>
      </trkpt>
      <trkpt lat="43.14331" lon="6.36661">
        <ele>115.142715</ele>
        <time>2019-08-30T10:28:09Z</time>
      </trkpt>
      <trkpt lat="43.14345" lon="6.36723">
        <ele>117.472</ele>
        <time>2019-08-30T10:28:27Z</time>
      </trkpt>
      <trkpt lat="43.14357" lon="6.36787">
        <ele>116.833054</ele>
        <time>2019-08-30T10:28:41Z</time>
      </trkpt>
      <trkpt lat="43.14367" lon="6.36851">
        <ele>116.145462</ele>
        <time>2019-08-30T10:28:52Z</time>
      </trkpt>
      <trkpt lat="43.14368" lon="6.36918">
        <ele>113.269997</ele>
        <time>2019-08-30T10:29:03Z</time>
      </trkpt>
      <trkpt lat="43.14356" lon="6.36977">
        <ele>108.122757</ele>
        <time>2019-08-30T10:29:10Z</time>
      </trkpt>
      <trkpt lat="43.14338" lon="6.37044">
        <ele>102.824539</ele>
        <time>2019-08-30T10:29:17Z</time>
      </trkpt>
      <trkpt lat="43.14314" lon="6.37097">
        <ele>97.700272</ele>
        <time>2019-08-30T10:29:23Z</time>
      </trkpt>
      <trkpt lat="43.14275" lon="6.37141">
        <ele>93.092552</ele>
        <time>2019-08-30T10:29:31Z</time>
      </trkpt>
      <trkpt lat="43.14259" lon="6.37099">
        <ele>88.264465</ele>
        <time>2019-08-30T10:29:42Z</time>
      </trkpt>
      <trkpt lat="43.14273" lon="6.37037">
        <ele>89.425606</ele>
        <time>2019-08-30T10:29:50Z</time>
      </trkpt>
      <trkpt lat="43.14243" lon="6.36984">
        <ele>83.69297</ele>
        <time>2019-08-30T10:29:57Z</time>
      </trkpt>
      <trkpt lat="43.14232" lon="6.36924">
        <ele>83.879395</ele>
        <time>2019-08-30T10:30:05Z</time>
      </trkpt>
      <trkpt lat="43.14236" lon="6.36861">
        <ele>83.242149</ele>
        <time>2019-08-30T10:30:13Z</time>
      </trkpt>
      <trkpt lat="43.14236" lon="6.36792">
        <ele>78.895393</ele>
        <time>2019-08-30T10:30:20Z</time>
      </trkpt>
      <trkpt lat="43.1424" lon="6.36734">
        <ele>78.338608</ele>
        <time>2019-08-30T10:30:27Z</time>
      </trkpt>
      <trkpt lat="43.14209" lon="6.36761">
        <ele>68.148949</ele>
        <time>2019-08-30T10:30:40Z</time>
      </trkpt>
      <trkpt lat="43.14192" lon="6.36818">
        <ele>67.364311</ele>
        <time>2019-08-30T10:30:50Z</time>
      </trkpt>
      <trkpt lat="43.14203" lon="6.36879">
        <ele>73.695412</ele>
        <time>2019-08-30T10:31:10Z</time>
      </trkpt>
      <trkpt lat="43.14196" lon="6.36943">
        <ele>72.537201</ele>
        <time>2019-08-30T10:31:26Z</time>
      </trkpt>
      <trkpt lat="43.142" lon="6.37005">
        <ele>71.319809</ele>
        <time>2019-08-30T10:31:39Z</time>
      </trkpt>
      <trkpt lat="43.14224" lon="6.37058">
        <ele>77.199997</ele>
        <time>2019-08-30T10:31:55Z</time>
      </trkpt>
      <trkpt lat="43.14217" lon="6.37118">
        <ele>82.488434</ele>
        <time>2019-08-30T10:32:16Z</time>
      </trkpt>
      <trkpt lat="43.14204" lon="6.37178">
        <ele>83.797501</ele>
        <time>2019-08-30T10:32:41Z</time>
      </trkpt>
      <trkpt lat="43.14191" lon="6.37239">
        <ele>83.835403</ele>
        <time>2019-08-30T10:32:57Z</time>
      </trkpt>
      <trkpt lat="43.14172" lon="6.37298">
        <ele>82.003059</ele>
        <time>2019-08-30T10:33:10Z</time>
      </trkpt>
      <trkpt lat="43.14151" lon="6.37364">
        <ele>79.955399</ele>
        <time>2019-08-30T10:33:19Z</time>
      </trkpt>
      <trkpt lat="43.14119" lon="6.37417">
        <ele>79.158524</ele>
        <time>2019-08-30T10:33:26Z</time>
      </trkpt>
      <trkpt lat="43.14085" lon="6.37462">
        <ele>76.569061</ele>
        <time>2019-08-30T10:33:37Z</time>
      </trkpt>
      <trkpt lat="43.14055" lon="6.37512">
        <ele>71.748535</ele>
        <time>2019-08-30T10:33:46Z</time>
      </trkpt>
      <trkpt lat="43.14024" lon="6.37568">
        <ele>66.428223</ele>
        <time>2019-08-30T10:33:53Z</time>
      </trkpt>
      <trkpt lat="43.13999" lon="6.3763">
        <ele>61.576939</ele>
        <time>2019-08-30T10:34:00Z</time>
      </trkpt>
      <trkpt lat="43.13977" lon="6.37688">
        <ele>53.802109</ele>
        <time>2019-08-30T10:34:06Z</time>
      </trkpt>
      <trkpt lat="43.13969" lon="6.37754">
        <ele>47.850376</ele>
        <time>2019-08-30T10:34:17Z</time>
      </trkpt>
      <trkpt lat="43.13952" lon="6.37808">
        <ele>44.413025</ele>
        <time>2019-08-30T10:34:24Z</time>
      </trkpt>
      <trkpt lat="43.13902" lon="6.37813">
        <ele>39.767376</ele>
        <time>2019-08-30T10:34:32Z</time>
      </trkpt>
      <trkpt lat="43.13873" lon="6.37763">
        <ele>35.547218</ele>
        <time>2019-08-30T10:34:38Z</time>
      </trkpt>
      <trkpt lat="43.13881" lon="6.37688">
        <ele>36.284111</ele>
        <time>2019-08-30T10:34:45Z</time>
      </trkpt>
      <trkpt lat="43.13859" lon="6.37654">
        <ele>28.790295</ele>
        <time>2019-08-30T10:34:53Z</time>
      </trkpt>
      <trkpt lat="43.13847" lon="6.37654">
        <ele>25.040913</ele>
        <time>2019-08-30T10:35:20Z</time>
      </trkpt>
      <trkpt lat="43.13826" lon="6.37592">
        <ele>24.114412</ele>
        <time>2019-08-30T10:35:33Z</time>
      </trkpt>
      <trkpt lat="43.1382" lon="6.37529">
        <ele>27.190519</ele>
        <time>2019-08-30T10:35:47Z</time>
      </trkpt>
      <trkpt lat="43.1383" lon="6.37457">
        <ele>23.468</ele>
        <time>2019-08-30T10:35:57Z</time>
      </trkpt>
      <trkpt lat="43.1386" lon="6.37399">
        <ele>19.3675</ele>
        <time>2019-08-30T10:36:05Z</time>
      </trkpt>
      <trkpt lat="43.13884" lon="6.37345">
        <ele>17.564344</ele>
        <time>2019-08-30T10:36:12Z</time>
      </trkpt>
      <trkpt lat="43.13897" lon="6.37284">
        <ele>12.72875</ele>
        <time>2019-08-30T10:36:21Z</time>
      </trkpt>
      <trkpt lat="43.13877" lon="6.37248">
        <ele>9.01125</ele>
        <time>2019-08-30T10:37:12Z</time>
      </trkpt>
      <trkpt lat="43.13878" lon="6.37316">
        <ele>13.227681</ele>
        <time>2019-08-30T10:37:27Z</time>
      </trkpt>
      <trkpt lat="43.1386" lon="6.37374">
        <ele>16.5</ele>
        <time>2019-08-30T10:37:42Z</time>
      </trkpt>
      <trkpt lat="43.13823" lon="6.37415">
        <ele>15.02025</ele>
        <time>2019-08-30T10:37:55Z</time>
      </trkpt>
      <trkpt lat="43.13788" lon="6.3746">
        <ele>12.377575</ele>
        <time>2019-08-30T10:38:10Z</time>
      </trkpt>
      <trkpt lat="43.13787" lon="6.37522">
        <ele>13.65685</ele>
        <time>2019-08-30T10:38:26Z</time>
      </trkpt>
      <trkpt lat="43.138" lon="6.37582">
        <ele>15.442968</ele>
        <time>2019-08-30T10:38:45Z</time>
      </trkpt>
      <trkpt lat="43.13828" lon="6.37634">
        <ele>20.012846</ele>
        <time>2019-08-30T10:39:47Z</time>
      </trkpt>
      <trkpt lat="43.13816" lon="6.37693">
        <ele>16.628374</ele>
        <time>2019-08-30T10:40:01Z</time>
      </trkpt>
      <trkpt lat="43.13805" lon="6.37753">
        <ele>15.008312</ele>
        <time>2019-08-30T10:40:16Z</time>
      </trkpt>
      <trkpt lat="43.13825" lon="6.3781">
        <ele>15.558375</ele>
        <time>2019-08-30T10:40:29Z</time>
      </trkpt>
      <trkpt lat="43.13843" lon="6.37868">
        <ele>16.64995</ele>
        <time>2019-08-30T10:40:42Z</time>
      </trkpt>
      <trkpt lat="43.13855" lon="6.37932">
        <ele>14.223025</ele>
        <time>2019-08-30T10:40:54Z</time>
      </trkpt>
      <trkpt lat="43.13872" lon="6.37994">
        <ele>11.8528</ele>
        <time>2019-08-30T10:41:07Z</time>
      </trkpt>
      <trkpt lat="43.13897" lon="6.38043">
        <ele>9.981321</ele>
        <time>2019-08-30T10:41:19Z</time>
      </trkpt>
      <trkpt lat="43.13942" lon="6.38043">
        <ele>10.792797</ele>
        <time>2019-08-30T10:41:44Z</time>
      </trkpt>
      <trkpt lat="43.13991" lon="6.38027">
        <ele>8.75711</ele>
        <time>2019-08-30T10:41:55Z</time>
      </trkpt>
      <trkpt lat="43.14039" lon="6.38016">
        <ele>5.935</ele>
        <time>2019-08-30T10:42:03Z</time>
      </trkpt>
      <trkpt lat="43.14087" lon="6.38004">
        <ele>4.4925</ele>
        <time>2019-08-30T10:42:13Z</time>
      </trkpt>
      <trkpt lat="43.14129" lon="6.37981">
        <ele>5.05125</ele>
        <time>2019-08-30T10:42:30Z</time>
      </trkpt>
      <trkpt lat="43.14172" lon="6.37953">
        <ele>6.85</ele>
        <time>2019-08-30T10:42:46Z</time>
      </trkpt>
      <trkpt lat="43.14216" lon="6.37927">
        <ele>7.81295</ele>
        <time>2019-08-30T10:42:59Z</time>
      </trkpt>
      <trkpt lat="43.14265" lon="6.37926">
        <ele>8.80875</ele>
        <time>2019-08-30T10:43:13Z</time>
      </trkpt>
      <trkpt lat="43.14312" lon="6.37926">
        <ele>7.917978</ele>
        <time>2019-08-30T10:43:24Z</time>
      </trkpt>
      <trkpt lat="43.14358" lon="6.37925">
        <ele>6.2343</ele>
        <time>2019-08-30T10:43:37Z</time>
      </trkpt>
      <trkpt lat="43.14404" lon="6.37953">
        <ele>6</ele>
        <time>2019-08-30T10:43:49Z</time>
      </trkpt>
      <trkpt lat="43.14446" lon="6.3798">
        <ele>6</ele>
        <time>2019-08-30T10:44:00Z</time>
      </trkpt>
      <trkpt lat="43.14465" lon="6.37963">
        <ele>6</ele>
        <time>2019-08-30T10:44:20Z</time>
      </trkpt>
      <trkpt lat="43.1447" lon="6.37985">
        <ele>6</ele>
        <time>2019-08-30T10:44:55Z</time>
      </trkpt>
      <trkpt lat="43.14504" lon="6.37986">
        <ele>6.4775</ele>
        <time>2019-08-30T10:45:21Z</time>
      </trkpt>
      <trkpt lat="43.14495" lon="6.38041">
        <ele>6.3225</ele>
        <time>2019-08-30T10:46:17Z</time>
      </trkpt>
    </trkseg>
  </trk>
</gpx>